<?xml version='1.0' encoding='UTF-8'?>
<gpx version="1.1" creator="https://www.komoot.de" xmlns="http://www.topografix.com/GPX/1/1" xmlns:xsi="http://www.w3.org/2001/XMLSchema-instance" xsi:schemaLocation="http://www.topografix.com/GPX/1/1 http://www.topografix.com/GPX/1/1/gpx.xsd">
  <metadata>
    <name>DVV PW Grafenwöhr am 24.09.2021</name>
    <author>
      <link href="https://www.komoot.de">
        <text>komoot</text>
        <type>text/html</type>
      </link>
    </author>
  </metadata>
  <trk>
    <name>DVV PW Grafenwöhr am 24.09.2021</name>
    <trkseg>
      <trkpt lat="49.729828" lon="11.905000">
        <ele>462.060450</ele>
        <time>2021-09-24T06:16:21.224Z</time>
      </trkpt>
      <trkpt lat="49.729599" lon="11.905060">
        <ele>462.060450</ele>
        <time>2021-09-24T06:16:44.167Z</time>
      </trkpt>
      <trkpt lat="49.729506" lon="11.905002">
        <ele>462.060450</ele>
        <time>2021-09-24T06:16:50.152Z</time>
      </trkpt>
      <trkpt lat="49.729426" lon="11.904939">
        <ele>462.060450</ele>
        <time>2021-09-24T06:16:56.157Z</time>
      </trkpt>
      <trkpt lat="49.729359" lon="11.904834">
        <ele>462.060450</ele>
        <time>2021-09-24T06:17:05.178Z</time>
      </trkpt>
      <trkpt lat="49.729297" lon="11.904723">
        <ele>462.060450</ele>
        <time>2021-09-24T06:17:13.155Z</time>
      </trkpt>
      <trkpt lat="49.729253" lon="11.904583">
        <ele>462.060450</ele>
        <time>2021-09-24T06:17:20.168Z</time>
      </trkpt>
      <trkpt lat="49.729199" lon="11.904455">
        <ele>462.060450</ele>
        <time>2021-09-24T06:17:26.164Z</time>
      </trkpt>
      <trkpt lat="49.729104" lon="11.904467">
        <ele>462.051529</ele>
        <time>2021-09-24T06:17:36.159Z</time>
      </trkpt>
      <trkpt lat="49.728999" lon="11.904323">
        <ele>461.893519</ele>
        <time>2021-09-24T06:18:00.156Z</time>
      </trkpt>
      <trkpt lat="49.728900" lon="11.904314">
        <ele>461.781845</ele>
        <time>2021-09-24T06:18:07.156Z</time>
      </trkpt>
      <trkpt lat="49.728800" lon="11.904303">
        <ele>461.668952</ele>
        <time>2021-09-24T06:18:16.149Z</time>
      </trkpt>
      <trkpt lat="49.728699" lon="11.904277">
        <ele>461.553654</ele>
        <time>2021-09-24T06:18:23.146Z</time>
      </trkpt>
      <trkpt lat="49.728606" lon="11.904248">
        <ele>461.446822</ele>
        <time>2021-09-24T06:18:30.142Z</time>
      </trkpt>
      <trkpt lat="49.728513" lon="11.904206">
        <ele>461.337725</ele>
        <time>2021-09-24T06:18:37.142Z</time>
      </trkpt>
      <trkpt lat="49.728423" lon="11.904180">
        <ele>461.234626</ele>
        <time>2021-09-24T06:18:43.167Z</time>
      </trkpt>
      <trkpt lat="49.728331" lon="11.904143">
        <ele>461.127582</ele>
        <time>2021-09-24T06:18:50.168Z</time>
      </trkpt>
      <trkpt lat="49.728250" lon="11.904072">
        <ele>461.022745</ele>
        <time>2021-09-24T06:18:57.157Z</time>
      </trkpt>
      <trkpt lat="49.728162" lon="11.904001">
        <ele>460.910983</ele>
        <time>2021-09-24T06:19:04.155Z</time>
      </trkpt>
      <trkpt lat="49.728080" lon="11.903919">
        <ele>460.801032</ele>
        <time>2021-09-24T06:19:11.156Z</time>
      </trkpt>
      <trkpt lat="49.727999" lon="11.903834">
        <ele>460.690813</ele>
        <time>2021-09-24T06:19:18.163Z</time>
      </trkpt>
      <trkpt lat="49.727923" lon="11.903746">
        <ele>460.583913</ele>
        <time>2021-09-24T06:19:25.144Z</time>
      </trkpt>
      <trkpt lat="49.727845" lon="11.903654">
        <ele>460.473461</ele>
        <time>2021-09-24T06:19:32.158Z</time>
      </trkpt>
      <trkpt lat="49.727771" lon="11.903570">
        <ele>460.370104</ele>
        <time>2021-09-24T06:19:39.152Z</time>
      </trkpt>
      <trkpt lat="49.727699" lon="11.903467">
        <ele>460.259673</ele>
        <time>2021-09-24T06:19:46.149Z</time>
      </trkpt>
      <trkpt lat="49.727634" lon="11.903367">
        <ele>460.156444</ele>
        <time>2021-09-24T06:19:52.157Z</time>
      </trkpt>
      <trkpt lat="49.727565" lon="11.903255">
        <ele>460.043820</ele>
        <time>2021-09-24T06:19:59.143Z</time>
      </trkpt>
      <trkpt lat="49.727487" lon="11.903151">
        <ele>460.125096</ele>
        <time>2021-09-24T06:20:06.155Z</time>
      </trkpt>
      <trkpt lat="49.727404" lon="11.903067">
        <ele>460.218966</ele>
        <time>2021-09-24T06:20:12.149Z</time>
      </trkpt>
      <trkpt lat="49.727324" lon="11.902979">
        <ele>460.311869</ele>
        <time>2021-09-24T06:20:18.163Z</time>
      </trkpt>
      <trkpt lat="49.727243" lon="11.902879">
        <ele>460.409949</ele>
        <time>2021-09-24T06:20:25.147Z</time>
      </trkpt>
      <trkpt lat="49.727162" lon="11.902808">
        <ele>460.498060</ele>
        <time>2021-09-24T06:20:32.159Z</time>
      </trkpt>
      <trkpt lat="49.727083" lon="11.902718">
        <ele>460.590915</ele>
        <time>2021-09-24T06:20:39.135Z</time>
      </trkpt>
      <trkpt lat="49.727007" lon="11.902607">
        <ele>460.689835</ele>
        <time>2021-09-24T06:20:46.145Z</time>
      </trkpt>
      <trkpt lat="49.726923" lon="11.902511">
        <ele>460.788677</ele>
        <time>2021-09-24T06:20:53.142Z</time>
      </trkpt>
      <trkpt lat="49.726847" lon="11.902419">
        <ele>460.880010</ele>
        <time>2021-09-24T06:20:59.163Z</time>
      </trkpt>
      <trkpt lat="49.726755" lon="11.902365">
        <ele>460.973138</ele>
        <time>2021-09-24T06:21:05.139Z</time>
      </trkpt>
      <trkpt lat="49.726669" lon="11.902315">
        <ele>461.060088</ele>
        <time>2021-09-24T06:21:12.157Z</time>
      </trkpt>
      <trkpt lat="49.726582" lon="11.902261">
        <ele>461.148808</ele>
        <time>2021-09-24T06:21:20.169Z</time>
      </trkpt>
      <trkpt lat="49.726499" lon="11.902180">
        <ele>461.241686</ele>
        <time>2021-09-24T06:21:26.140Z</time>
      </trkpt>
      <trkpt lat="49.726410" lon="11.902095">
        <ele>461.340677</ele>
        <time>2021-09-24T06:21:32.156Z</time>
      </trkpt>
      <trkpt lat="49.726316" lon="11.902026">
        <ele>461.439149</ele>
        <time>2021-09-24T06:21:38.155Z</time>
      </trkpt>
      <trkpt lat="49.726237" lon="11.901946">
        <ele>461.528511</ele>
        <time>2021-09-24T06:21:44.146Z</time>
      </trkpt>
      <trkpt lat="49.726155" lon="11.901875">
        <ele>461.617448</ele>
        <time>2021-09-24T06:21:50.150Z</time>
      </trkpt>
      <trkpt lat="49.726074" lon="11.901811">
        <ele>461.703529</ele>
        <time>2021-09-24T06:21:57.151Z</time>
      </trkpt>
      <trkpt lat="49.725990" lon="11.901731">
        <ele>461.530625</ele>
        <time>2021-09-24T06:22:05.152Z</time>
      </trkpt>
      <trkpt lat="49.725907" lon="11.901672">
        <ele>461.230754</ele>
        <time>2021-09-24T06:22:12.156Z</time>
      </trkpt>
      <trkpt lat="49.725826" lon="11.901569">
        <ele>460.886529</ele>
        <time>2021-09-24T06:22:19.141Z</time>
      </trkpt>
      <trkpt lat="49.725728" lon="11.901529">
        <ele>460.553796</ele>
        <time>2021-09-24T06:22:25.157Z</time>
      </trkpt>
      <trkpt lat="49.725636" lon="11.901500">
        <ele>460.245563</ele>
        <time>2021-09-24T06:22:32.160Z</time>
      </trkpt>
      <trkpt lat="49.725544" lon="11.901474">
        <ele>459.938539</ele>
        <time>2021-09-24T06:22:40.171Z</time>
      </trkpt>
      <trkpt lat="49.725446" lon="11.901450">
        <ele>459.612809</ele>
        <time>2021-09-24T06:22:47.157Z</time>
      </trkpt>
      <trkpt lat="49.725354" lon="11.901438">
        <ele>459.309712</ele>
        <time>2021-09-24T06:22:54.145Z</time>
      </trkpt>
      <trkpt lat="49.725263" lon="11.901421">
        <ele>459.008798</ele>
        <time>2021-09-24T06:23:01.149Z</time>
      </trkpt>
      <trkpt lat="49.725172" lon="11.901391">
        <ele>458.703346</ele>
        <time>2021-09-24T06:23:08.147Z</time>
      </trkpt>
      <trkpt lat="49.725070" lon="11.901395">
        <ele>458.368384</ele>
        <time>2021-09-24T06:23:15.161Z</time>
      </trkpt>
      <trkpt lat="49.724976" lon="11.901401">
        <ele>458.059530</ele>
        <time>2021-09-24T06:23:21.155Z</time>
      </trkpt>
      <trkpt lat="49.724870" lon="11.901422">
        <ele>457.708702</ele>
        <time>2021-09-24T06:23:28.146Z</time>
      </trkpt>
      <trkpt lat="49.724774" lon="11.901437">
        <ele>457.391941</ele>
        <time>2021-09-24T06:23:36.158Z</time>
      </trkpt>
      <trkpt lat="49.724684" lon="11.901490">
        <ele>457.075795</ele>
        <time>2021-09-24T06:23:42.162Z</time>
      </trkpt>
      <trkpt lat="49.724591" lon="11.901513">
        <ele>456.766609</ele>
        <time>2021-09-24T06:23:48.161Z</time>
      </trkpt>
      <trkpt lat="49.724489" lon="11.901509">
        <ele>456.431647</ele>
        <time>2021-09-24T06:23:55.165Z</time>
      </trkpt>
      <trkpt lat="49.724399" lon="11.901515">
        <ele>456.135913</ele>
        <time>2021-09-24T06:24:02.147Z</time>
      </trkpt>
      <trkpt lat="49.724308" lon="11.901539">
        <ele>455.832859</ele>
        <time>2021-09-24T06:24:09.151Z</time>
      </trkpt>
      <trkpt lat="49.724212" lon="11.901576">
        <ele>455.862800</ele>
        <time>2021-09-24T06:24:16.142Z</time>
      </trkpt>
      <trkpt lat="49.724119" lon="11.901625">
        <ele>455.892857</ele>
        <time>2021-09-24T06:24:23.156Z</time>
      </trkpt>
      <trkpt lat="49.724023" lon="11.901653">
        <ele>455.922745</ele>
        <time>2021-09-24T06:24:29.152Z</time>
      </trkpt>
      <trkpt lat="49.723927" lon="11.901676">
        <ele>455.952465</ele>
        <time>2021-09-24T06:24:35.158Z</time>
      </trkpt>
      <trkpt lat="49.723833" lon="11.901721">
        <ele>455.982569</ele>
        <time>2021-09-24T06:24:42.156Z</time>
      </trkpt>
      <trkpt lat="49.723736" lon="11.901758">
        <ele>456.013133</ele>
        <time>2021-09-24T06:24:50.171Z</time>
      </trkpt>
      <trkpt lat="49.723641" lon="11.901787">
        <ele>456.042758</ele>
        <time>2021-09-24T06:24:58.161Z</time>
      </trkpt>
      <trkpt lat="49.723537" lon="11.901797">
        <ele>456.074637</ele>
        <time>2021-09-24T06:25:04.160Z</time>
      </trkpt>
      <trkpt lat="49.723438" lon="11.901808">
        <ele>456.105002</ele>
        <time>2021-09-24T06:25:11.146Z</time>
      </trkpt>
      <trkpt lat="49.723345" lon="11.901884">
        <ele>456.137181</ele>
        <time>2021-09-24T06:25:18.146Z</time>
      </trkpt>
      <trkpt lat="49.723251" lon="11.901908">
        <ele>456.166328</ele>
        <time>2021-09-24T06:25:24.141Z</time>
      </trkpt>
      <trkpt lat="49.723154" lon="11.901943">
        <ele>456.196801</ele>
        <time>2021-09-24T06:25:31.154Z</time>
      </trkpt>
      <trkpt lat="49.723058" lon="11.902001">
        <ele>456.228331</ele>
        <time>2021-09-24T06:25:38.155Z</time>
      </trkpt>
      <trkpt lat="49.722976" lon="11.902067">
        <ele>456.256611</ele>
        <time>2021-09-24T06:25:46.144Z</time>
      </trkpt>
      <trkpt lat="49.722873" lon="11.902072">
        <ele>456.288138</ele>
        <time>2021-09-24T06:25:53.156Z</time>
      </trkpt>
      <trkpt lat="49.722777" lon="11.902112">
        <ele>456.318555</ele>
        <time>2021-09-24T06:26:01.130Z</time>
      </trkpt>
      <trkpt lat="49.722679" lon="11.902166">
        <ele>456.350382</ele>
        <time>2021-09-24T06:26:09.141Z</time>
      </trkpt>
      <trkpt lat="49.722598" lon="11.902238">
        <ele>456.378963</ele>
        <time>2021-09-24T06:26:15.173Z</time>
      </trkpt>
      <trkpt lat="49.722534" lon="11.902337">
        <ele>456.979790</ele>
        <time>2021-09-24T06:26:21.150Z</time>
      </trkpt>
      <trkpt lat="49.722457" lon="11.902444">
        <ele>457.773295</ele>
        <time>2021-09-24T06:26:30.157Z</time>
      </trkpt>
      <trkpt lat="49.722397" lon="11.902550">
        <ele>458.471542</ele>
        <time>2021-09-24T06:26:35.140Z</time>
      </trkpt>
      <trkpt lat="49.722324" lon="11.902641">
        <ele>459.190275</ele>
        <time>2021-09-24T06:26:43.153Z</time>
      </trkpt>
      <trkpt lat="49.722195" lon="11.902623">
        <ele>460.183211</ele>
        <time>2021-09-24T06:27:09.140Z</time>
      </trkpt>
      <trkpt lat="49.722098" lon="11.902607">
        <ele>460.931035</ele>
        <time>2021-09-24T06:27:16.168Z</time>
      </trkpt>
      <trkpt lat="49.722004" lon="11.902589">
        <ele>461.657144</ele>
        <time>2021-09-24T06:27:22.160Z</time>
      </trkpt>
      <trkpt lat="49.721914" lon="11.902580">
        <ele>462.348530</ele>
        <time>2021-09-24T06:27:29.160Z</time>
      </trkpt>
      <trkpt lat="49.721814" lon="11.902551">
        <ele>463.128492</ele>
        <time>2021-09-24T06:27:36.158Z</time>
      </trkpt>
      <trkpt lat="49.721723" lon="11.902504">
        <ele>463.863965</ele>
        <time>2021-09-24T06:27:43.155Z</time>
      </trkpt>
      <trkpt lat="49.721653" lon="11.902328">
        <ele>464.888089</ele>
        <time>2021-09-24T06:28:28.151Z</time>
      </trkpt>
      <trkpt lat="49.721622" lon="11.902183">
        <ele>465.645000</ele>
        <time>2021-09-24T06:28:34.118Z</time>
      </trkpt>
      <trkpt lat="49.721635" lon="11.902033">
        <ele>466.395068</ele>
        <time>2021-09-24T06:28:51.152Z</time>
      </trkpt>
      <trkpt lat="49.721692" lon="11.901905">
        <ele>467.165380</ele>
        <time>2021-09-24T06:28:58.174Z</time>
      </trkpt>
      <trkpt lat="49.721749" lon="11.901781">
        <ele>467.919448</ele>
        <time>2021-09-24T06:29:07.174Z</time>
      </trkpt>
      <trkpt lat="49.721811" lon="11.901676">
        <ele>468.624226</ele>
        <time>2021-09-24T06:29:16.153Z</time>
      </trkpt>
      <trkpt lat="49.721839" lon="11.901537">
        <ele>469.345790</ele>
        <time>2021-09-24T06:29:26.156Z</time>
      </trkpt>
      <trkpt lat="49.721841" lon="11.901379">
        <ele>470.129003</ele>
        <time>2021-09-24T06:29:34.154Z</time>
      </trkpt>
      <trkpt lat="49.721832" lon="11.901232">
        <ele>470.969425</ele>
        <time>2021-09-24T06:29:42.161Z</time>
      </trkpt>
      <trkpt lat="49.721846" lon="11.901094">
        <ele>471.770798</ele>
        <time>2021-09-24T06:29:52.132Z</time>
      </trkpt>
      <trkpt lat="49.721798" lon="11.900968">
        <ele>472.609800</ele>
        <time>2021-09-24T06:30:02.123Z</time>
      </trkpt>
      <trkpt lat="49.721880" lon="11.901036">
        <ele>473.435420</ele>
        <time>2021-09-24T06:30:33.150Z</time>
      </trkpt>
      <trkpt lat="49.721979" lon="11.900999">
        <ele>474.339196</ele>
        <time>2021-09-24T06:30:42.149Z</time>
      </trkpt>
      <trkpt lat="49.722008" lon="11.900846">
        <ele>475.253877</ele>
        <time>2021-09-24T06:30:47.154Z</time>
      </trkpt>
      <trkpt lat="49.721933" lon="11.900733">
        <ele>476.182946</ele>
        <time>2021-09-24T06:30:54.151Z</time>
      </trkpt>
      <trkpt lat="49.721849" lon="11.900633">
        <ele>477.123543</ele>
        <time>2021-09-24T06:31:02.151Z</time>
      </trkpt>
      <trkpt lat="49.721770" lon="11.900564">
        <ele>477.928604</ele>
        <time>2021-09-24T06:31:09.154Z</time>
      </trkpt>
      <trkpt lat="49.721690" lon="11.900486">
        <ele>478.767763</ele>
        <time>2021-09-24T06:31:19.169Z</time>
      </trkpt>
      <trkpt lat="49.721623" lon="11.900382">
        <ele>479.610050</ele>
        <time>2021-09-24T06:31:31.173Z</time>
      </trkpt>
      <trkpt lat="49.721590" lon="11.900241">
        <ele>480.470322</ele>
        <time>2021-09-24T06:31:39.126Z</time>
      </trkpt>
      <trkpt lat="49.721631" lon="11.900112">
        <ele>481.294974</ele>
        <time>2021-09-24T06:32:12.152Z</time>
      </trkpt>
      <trkpt lat="49.721611" lon="11.899961">
        <ele>482.179234</ele>
        <time>2021-09-24T06:32:19.155Z</time>
      </trkpt>
      <trkpt lat="49.721573" lon="11.899829">
        <ele>483.008184</ele>
        <time>2021-09-24T06:32:39.136Z</time>
      </trkpt>
      <trkpt lat="49.721580" lon="11.899688">
        <ele>483.819465</ele>
        <time>2021-09-24T06:32:46.158Z</time>
      </trkpt>
      <trkpt lat="49.721591" lon="11.899528">
        <ele>484.742540</ele>
        <time>2021-09-24T06:32:52.151Z</time>
      </trkpt>
      <trkpt lat="49.721657" lon="11.899416">
        <ele>485.611934</ele>
        <time>2021-09-24T06:32:59.157Z</time>
      </trkpt>
      <trkpt lat="49.721755" lon="11.899401">
        <ele>486.181588</ele>
        <time>2021-09-24T06:33:17.161Z</time>
      </trkpt>
      <trkpt lat="49.721808" lon="11.899277">
        <ele>486.301195</ele>
        <time>2021-09-24T06:33:23.154Z</time>
      </trkpt>
      <trkpt lat="49.721847" lon="11.899137">
        <ele>486.423854</ele>
        <time>2021-09-24T06:33:30.143Z</time>
      </trkpt>
      <trkpt lat="49.721881" lon="11.899007">
        <ele>486.536690</ele>
        <time>2021-09-24T06:33:36.143Z</time>
      </trkpt>
      <trkpt lat="49.721925" lon="11.898882">
        <ele>486.651209</ele>
        <time>2021-09-24T06:33:41.141Z</time>
      </trkpt>
      <trkpt lat="49.721965" lon="11.898743">
        <ele>486.773631</ele>
        <time>2021-09-24T06:33:47.144Z</time>
      </trkpt>
      <trkpt lat="49.722029" lon="11.898617">
        <ele>486.902561</ele>
        <time>2021-09-24T06:33:54.156Z</time>
      </trkpt>
      <trkpt lat="49.722091" lon="11.898501">
        <ele>487.023664</ele>
        <time>2021-09-24T06:34:01.169Z</time>
      </trkpt>
      <trkpt lat="49.722155" lon="11.898380">
        <ele>487.149455</ele>
        <time>2021-09-24T06:34:07.139Z</time>
      </trkpt>
      <trkpt lat="49.722220" lon="11.898263">
        <ele>487.273579</ele>
        <time>2021-09-24T06:34:15.138Z</time>
      </trkpt>
      <trkpt lat="49.722301" lon="11.898153">
        <ele>487.407730</ele>
        <time>2021-09-24T06:34:23.159Z</time>
      </trkpt>
      <trkpt lat="49.722347" lon="11.898022">
        <ele>487.527679</ele>
        <time>2021-09-24T06:34:31.142Z</time>
      </trkpt>
      <trkpt lat="49.722362" lon="11.897872">
        <ele>487.649806</ele>
        <time>2021-09-24T06:34:38.161Z</time>
      </trkpt>
      <trkpt lat="49.722408" lon="11.897731">
        <ele>487.776883</ele>
        <time>2021-09-24T06:34:45.137Z</time>
      </trkpt>
      <trkpt lat="49.722431" lon="11.897583">
        <ele>487.899358</ele>
        <time>2021-09-24T06:34:52.148Z</time>
      </trkpt>
      <trkpt lat="49.722447" lon="11.897433">
        <ele>488.021682</ele>
        <time>2021-09-24T06:35:00.137Z</time>
      </trkpt>
      <trkpt lat="49.722444" lon="11.897265">
        <ele>488.156908</ele>
        <time>2021-09-24T06:35:06.151Z</time>
      </trkpt>
      <trkpt lat="49.722430" lon="11.897128">
        <ele>488.268508</ele>
        <time>2021-09-24T06:35:11.148Z</time>
      </trkpt>
      <trkpt lat="49.722407" lon="11.896978">
        <ele>488.458124</ele>
        <time>2021-09-24T06:35:18.150Z</time>
      </trkpt>
      <trkpt lat="49.722379" lon="11.896839">
        <ele>488.923988</ele>
        <time>2021-09-24T06:35:25.161Z</time>
      </trkpt>
      <trkpt lat="49.722351" lon="11.896685">
        <ele>489.435875</ele>
        <time>2021-09-24T06:35:32.164Z</time>
      </trkpt>
      <trkpt lat="49.722326" lon="11.896539">
        <ele>489.919156</ele>
        <time>2021-09-24T06:35:39.154Z</time>
      </trkpt>
      <trkpt lat="49.722298" lon="11.896388">
        <ele>490.421810</ele>
        <time>2021-09-24T06:35:46.137Z</time>
      </trkpt>
      <trkpt lat="49.722275" lon="11.896248">
        <ele>490.884021</ele>
        <time>2021-09-24T06:35:52.156Z</time>
      </trkpt>
      <trkpt lat="49.722240" lon="11.896099">
        <ele>491.391290</ele>
        <time>2021-09-24T06:35:59.160Z</time>
      </trkpt>
      <trkpt lat="49.722213" lon="11.895954">
        <ele>491.874125</ele>
        <time>2021-09-24T06:36:06.140Z</time>
      </trkpt>
      <trkpt lat="49.722222" lon="11.895806">
        <ele>492.349788</ele>
        <time>2021-09-24T06:36:14.161Z</time>
      </trkpt>
      <trkpt lat="49.722211" lon="11.895647">
        <ele>492.861464</ele>
        <time>2021-09-24T06:36:22.137Z</time>
      </trkpt>
      <trkpt lat="49.722205" lon="11.895502">
        <ele>493.326387</ele>
        <time>2021-09-24T06:36:30.154Z</time>
      </trkpt>
      <trkpt lat="49.722204" lon="11.895356">
        <ele>493.793587</ele>
        <time>2021-09-24T06:36:38.149Z</time>
      </trkpt>
      <trkpt lat="49.722212" lon="11.895207">
        <ele>494.272001</ele>
        <time>2021-09-24T06:36:45.156Z</time>
      </trkpt>
      <trkpt lat="49.722212" lon="11.895060">
        <ele>494.742374</ele>
        <time>2021-09-24T06:36:51.160Z</time>
      </trkpt>
      <trkpt lat="49.722202" lon="11.894918">
        <ele>495.199436</ele>
        <time>2021-09-24T06:36:57.154Z</time>
      </trkpt>
      <trkpt lat="49.722199" lon="11.894763">
        <ele>495.695630</ele>
        <time>2021-09-24T06:37:03.150Z</time>
      </trkpt>
      <trkpt lat="49.722193" lon="11.894617">
        <ele>496.163746</ele>
        <time>2021-09-24T06:37:10.134Z</time>
      </trkpt>
      <trkpt lat="49.722194" lon="11.894472">
        <ele>496.627746</ele>
        <time>2021-09-24T06:37:18.170Z</time>
      </trkpt>
      <trkpt lat="49.722174" lon="11.894324">
        <ele>497.111555</ele>
        <time>2021-09-24T06:37:24.155Z</time>
      </trkpt>
      <trkpt lat="49.722168" lon="11.894185">
        <ele>497.465778</ele>
        <time>2021-09-24T06:37:31.139Z</time>
      </trkpt>
      <trkpt lat="49.722171" lon="11.894039">
        <ele>497.782754</ele>
        <time>2021-09-24T06:37:41.156Z</time>
      </trkpt>
      <trkpt lat="49.722153" lon="11.893881">
        <ele>498.130893</ele>
        <time>2021-09-24T06:37:49.167Z</time>
      </trkpt>
      <trkpt lat="49.722193" lon="11.893726">
        <ele>498.493047</ele>
        <time>2021-09-24T06:37:55.152Z</time>
      </trkpt>
      <trkpt lat="49.722248" lon="11.893594">
        <ele>498.833820</ele>
        <time>2021-09-24T06:38:02.162Z</time>
      </trkpt>
      <trkpt lat="49.722299" lon="11.893473">
        <ele>499.147261</ele>
        <time>2021-09-24T06:38:08.156Z</time>
      </trkpt>
      <trkpt lat="49.722343" lon="11.893334">
        <ele>499.483102</ele>
        <time>2021-09-24T06:38:17.151Z</time>
      </trkpt>
      <trkpt lat="49.722352" lon="11.893177">
        <ele>499.825124</ele>
        <time>2021-09-24T06:38:24.167Z</time>
      </trkpt>
      <trkpt lat="49.722329" lon="11.893042">
        <ele>500.128072</ele>
        <time>2021-09-24T06:38:31.151Z</time>
      </trkpt>
      <trkpt lat="49.722328" lon="11.892892">
        <ele>500.453585</ele>
        <time>2021-09-24T06:38:38.144Z</time>
      </trkpt>
      <trkpt lat="49.722307" lon="11.892748">
        <ele>500.773912</ele>
        <time>2021-09-24T06:38:43.158Z</time>
      </trkpt>
      <trkpt lat="49.722285" lon="11.892610">
        <ele>501.082338</ele>
        <time>2021-09-24T06:38:48.157Z</time>
      </trkpt>
      <trkpt lat="49.722277" lon="11.892462">
        <ele>501.404615</ele>
        <time>2021-09-24T06:38:54.143Z</time>
      </trkpt>
      <trkpt lat="49.722262" lon="11.892320">
        <ele>501.716837</ele>
        <time>2021-09-24T06:39:01.156Z</time>
      </trkpt>
      <trkpt lat="49.722252" lon="11.892177">
        <ele>502.028953</ele>
        <time>2021-09-24T06:39:09.138Z</time>
      </trkpt>
      <trkpt lat="49.722253" lon="11.892018">
        <ele>502.373996</ele>
        <time>2021-09-24T06:39:16.146Z</time>
      </trkpt>
      <trkpt lat="49.722264" lon="11.891878">
        <ele>502.680027</ele>
        <time>2021-09-24T06:39:22.149Z</time>
      </trkpt>
      <trkpt lat="49.722260" lon="11.891725">
        <ele>503.012305</ele>
        <time>2021-09-24T06:39:28.157Z</time>
      </trkpt>
      <trkpt lat="49.722262" lon="11.891569">
        <ele>503.343708</ele>
        <time>2021-09-24T06:39:34.155Z</time>
      </trkpt>
      <trkpt lat="49.722263" lon="11.891417">
        <ele>503.615526</ele>
        <time>2021-09-24T06:39:41.163Z</time>
      </trkpt>
      <trkpt lat="49.722288" lon="11.891273">
        <ele>503.882147</ele>
        <time>2021-09-24T06:39:47.144Z</time>
      </trkpt>
      <trkpt lat="49.722312" lon="11.891125">
        <ele>504.154997</ele>
        <time>2021-09-24T06:39:53.152Z</time>
      </trkpt>
      <trkpt lat="49.722334" lon="11.890983">
        <ele>504.416108</ele>
        <time>2021-09-24T06:40:00.146Z</time>
      </trkpt>
      <trkpt lat="49.722339" lon="11.890824">
        <ele>504.700765</ele>
        <time>2021-09-24T06:40:08.152Z</time>
      </trkpt>
      <trkpt lat="49.722342" lon="11.890678">
        <ele>504.961971</ele>
        <time>2021-09-24T06:40:14.141Z</time>
      </trkpt>
      <trkpt lat="49.722345" lon="11.890519">
        <ele>505.246412</ele>
        <time>2021-09-24T06:40:21.157Z</time>
      </trkpt>
      <trkpt lat="49.722358" lon="11.890376">
        <ele>505.504637</ele>
        <time>2021-09-24T06:40:29.150Z</time>
      </trkpt>
      <trkpt lat="49.722379" lon="11.890225">
        <ele>505.780829</ele>
        <time>2021-09-24T06:40:36.158Z</time>
      </trkpt>
      <trkpt lat="49.722384" lon="11.890077">
        <ele>506.045841</ele>
        <time>2021-09-24T06:40:42.167Z</time>
      </trkpt>
      <trkpt lat="49.722412" lon="11.889942">
        <ele>506.299364</ele>
        <time>2021-09-24T06:40:48.147Z</time>
      </trkpt>
      <trkpt lat="49.722420" lon="11.889787">
        <ele>506.577413</ele>
        <time>2021-09-24T06:40:55.168Z</time>
      </trkpt>
      <trkpt lat="49.722435" lon="11.889631">
        <ele>506.859437</ele>
        <time>2021-09-24T06:41:01.152Z</time>
      </trkpt>
      <trkpt lat="49.722456" lon="11.889479">
        <ele>507.137377</ele>
        <time>2021-09-24T06:41:08.133Z</time>
      </trkpt>
      <trkpt lat="49.722466" lon="11.889337">
        <ele>507.392800</ele>
        <time>2021-09-24T06:41:14.142Z</time>
      </trkpt>
      <trkpt lat="49.722478" lon="11.889180">
        <ele>507.675498</ele>
        <time>2021-09-24T06:41:21.160Z</time>
      </trkpt>
      <trkpt lat="49.722483" lon="11.889040">
        <ele>507.926224</ele>
        <time>2021-09-24T06:41:28.139Z</time>
      </trkpt>
      <trkpt lat="49.722494" lon="11.888901">
        <ele>508.176636</ele>
        <time>2021-09-24T06:41:35.152Z</time>
      </trkpt>
      <trkpt lat="49.722519" lon="11.888742">
        <ele>508.513295</ele>
        <time>2021-09-24T06:41:42.152Z</time>
      </trkpt>
      <trkpt lat="49.722536" lon="11.888588">
        <ele>508.859483</ele>
        <time>2021-09-24T06:41:48.155Z</time>
      </trkpt>
      <trkpt lat="49.722552" lon="11.888450">
        <ele>509.170156</ele>
        <time>2021-09-24T06:41:53.155Z</time>
      </trkpt>
      <trkpt lat="49.722562" lon="11.888308">
        <ele>509.486675</ele>
        <time>2021-09-24T06:42:00.136Z</time>
      </trkpt>
      <trkpt lat="49.722579" lon="11.888170">
        <ele>509.797972</ele>
        <time>2021-09-24T06:42:06.148Z</time>
      </trkpt>
      <trkpt lat="49.722602" lon="11.888033">
        <ele>510.111619</ele>
        <time>2021-09-24T06:42:12.164Z</time>
      </trkpt>
      <trkpt lat="49.722613" lon="11.887884">
        <ele>510.443933</ele>
        <time>2021-09-24T06:42:18.155Z</time>
      </trkpt>
      <trkpt lat="49.722636" lon="11.887745">
        <ele>510.761872</ele>
        <time>2021-09-24T06:42:24.146Z</time>
      </trkpt>
      <trkpt lat="49.722647" lon="11.887585">
        <ele>511.118415</ele>
        <time>2021-09-24T06:42:31.163Z</time>
      </trkpt>
      <trkpt lat="49.722667" lon="11.887448">
        <ele>511.429636</ele>
        <time>2021-09-24T06:42:37.160Z</time>
      </trkpt>
      <trkpt lat="49.722684" lon="11.887296">
        <ele>511.771455</ele>
        <time>2021-09-24T06:42:44.156Z</time>
      </trkpt>
      <trkpt lat="49.722698" lon="11.887155">
        <ele>512.087560</ele>
        <time>2021-09-24T06:42:50.147Z</time>
      </trkpt>
      <trkpt lat="49.722708" lon="11.886994">
        <ele>512.445962</ele>
        <time>2021-09-24T06:42:56.156Z</time>
      </trkpt>
      <trkpt lat="49.722720" lon="11.886848">
        <ele>512.772086</ele>
        <time>2021-09-24T06:43:02.124Z</time>
      </trkpt>
      <trkpt lat="49.722741" lon="11.886713">
        <ele>513.079770</ele>
        <time>2021-09-24T06:43:08.154Z</time>
      </trkpt>
      <trkpt lat="49.722767" lon="11.886567">
        <ele>513.415340</ele>
        <time>2021-09-24T06:43:16.150Z</time>
      </trkpt>
      <trkpt lat="49.722784" lon="11.886420">
        <ele>513.746246</ele>
        <time>2021-09-24T06:43:22.144Z</time>
      </trkpt>
      <trkpt lat="49.722816" lon="11.886268">
        <ele>514.100470</ele>
        <time>2021-09-24T06:43:28.148Z</time>
      </trkpt>
      <trkpt lat="49.722849" lon="11.886123">
        <ele>514.441102</ele>
        <time>2021-09-24T06:43:34.148Z</time>
      </trkpt>
      <trkpt lat="49.722882" lon="11.885983">
        <ele>514.892026</ele>
        <time>2021-09-24T06:43:41.139Z</time>
      </trkpt>
      <trkpt lat="49.722942" lon="11.885876">
        <ele>515.323851</ele>
        <time>2021-09-24T06:43:47.152Z</time>
      </trkpt>
      <trkpt lat="49.723004" lon="11.885749">
        <ele>515.809028</ele>
        <time>2021-09-24T06:43:54.150Z</time>
      </trkpt>
      <trkpt lat="49.723057" lon="11.885627">
        <ele>516.257144</ele>
        <time>2021-09-24T06:44:01.164Z</time>
      </trkpt>
      <trkpt lat="49.723112" lon="11.885512">
        <ele>516.693253</ele>
        <time>2021-09-24T06:44:07.143Z</time>
      </trkpt>
      <trkpt lat="49.723182" lon="11.885401">
        <ele>517.165997</ele>
        <time>2021-09-24T06:44:13.155Z</time>
      </trkpt>
      <trkpt lat="49.723255" lon="11.885292">
        <ele>517.644470</ele>
        <time>2021-09-24T06:44:20.149Z</time>
      </trkpt>
      <trkpt lat="49.723315" lon="11.885178">
        <ele>518.092632</ele>
        <time>2021-09-24T06:44:26.155Z</time>
      </trkpt>
      <trkpt lat="49.723348" lon="11.885043">
        <ele>518.532641</ele>
        <time>2021-09-24T06:44:33.137Z</time>
      </trkpt>
      <trkpt lat="49.723399" lon="11.884928">
        <ele>518.957801</ele>
        <time>2021-09-24T06:44:41.164Z</time>
      </trkpt>
      <trkpt lat="49.723455" lon="11.884815">
        <ele>519.391874</ele>
        <time>2021-09-24T06:44:48.162Z</time>
      </trkpt>
      <trkpt lat="49.723533" lon="11.884743">
        <ele>519.820223</ele>
        <time>2021-09-24T06:44:57.143Z</time>
      </trkpt>
      <trkpt lat="49.723626" lon="11.884822">
        <ele>520.320571</ele>
        <time>2021-09-24T06:45:02.153Z</time>
      </trkpt>
      <trkpt lat="49.723685" lon="11.884939">
        <ele>520.772945</ele>
        <time>2021-09-24T06:45:16.133Z</time>
      </trkpt>
      <trkpt lat="49.723779" lon="11.884971">
        <ele>521.226838</ele>
        <time>2021-09-24T06:45:23.142Z</time>
      </trkpt>
      <trkpt lat="49.723862" lon="11.885036">
        <ele>521.665552</ele>
        <time>2021-09-24T06:45:30.140Z</time>
      </trkpt>
      <trkpt lat="49.723955" lon="11.885086">
        <ele>522.129857</ele>
        <time>2021-09-24T06:45:37.142Z</time>
      </trkpt>
      <trkpt lat="49.724044" lon="11.885017">
        <ele>522.599327</ele>
        <time>2021-09-24T06:45:45.137Z</time>
      </trkpt>
      <trkpt lat="49.724058" lon="11.884863">
        <ele>522.970621</ele>
        <time>2021-09-24T06:45:51.154Z</time>
      </trkpt>
      <trkpt lat="49.724080" lon="11.884715">
        <ele>523.096732</ele>
        <time>2021-09-24T06:45:59.143Z</time>
      </trkpt>
      <trkpt lat="49.724160" lon="11.884633">
        <ele>523.220011</ele>
        <time>2021-09-24T06:46:26.134Z</time>
      </trkpt>
      <trkpt lat="49.724241" lon="11.884564">
        <ele>523.338795</ele>
        <time>2021-09-24T06:46:35.161Z</time>
      </trkpt>
      <trkpt lat="49.724339" lon="11.884567">
        <ele>523.464707</ele>
        <time>2021-09-24T06:46:42.130Z</time>
      </trkpt>
      <trkpt lat="49.724431" lon="11.884612">
        <ele>523.588655</ele>
        <time>2021-09-24T06:46:48.157Z</time>
      </trkpt>
      <trkpt lat="49.724523" lon="11.884658">
        <ele>523.712855</ele>
        <time>2021-09-24T06:46:54.160Z</time>
      </trkpt>
      <trkpt lat="49.724606" lon="11.884738">
        <ele>523.838478</ele>
        <time>2021-09-24T06:47:01.170Z</time>
      </trkpt>
      <trkpt lat="49.724698" lon="11.884798">
        <ele>523.966732</ele>
        <time>2021-09-24T06:47:09.143Z</time>
      </trkpt>
      <trkpt lat="49.724791" lon="11.884858">
        <ele>524.096171</ele>
        <time>2021-09-24T06:47:16.149Z</time>
      </trkpt>
      <trkpt lat="49.724878" lon="11.884896">
        <ele>524.212298</ele>
        <time>2021-09-24T06:47:23.153Z</time>
      </trkpt>
      <trkpt lat="49.724965" lon="11.884824">
        <ele>524.339044</ele>
        <time>2021-09-24T06:47:32.141Z</time>
      </trkpt>
      <trkpt lat="49.724992" lon="11.884677">
        <ele>524.465947</ele>
        <time>2021-09-24T06:47:39.155Z</time>
      </trkpt>
      <trkpt lat="49.724987" lon="11.884531">
        <ele>524.587358</ele>
        <time>2021-09-24T06:47:46.149Z</time>
      </trkpt>
      <trkpt lat="49.725018" lon="11.884395">
        <ele>524.707109</ele>
        <time>2021-09-24T06:47:54.152Z</time>
      </trkpt>
      <trkpt lat="49.725077" lon="11.884270">
        <ele>524.835635</ele>
        <time>2021-09-24T06:48:03.148Z</time>
      </trkpt>
      <trkpt lat="49.725129" lon="11.884136">
        <ele>524.965420</ele>
        <time>2021-09-24T06:48:10.151Z</time>
      </trkpt>
      <trkpt lat="49.725166" lon="11.883995">
        <ele>525.091787</ele>
        <time>2021-09-24T06:48:17.156Z</time>
      </trkpt>
      <trkpt lat="49.725181" lon="11.883850">
        <ele>525.213729</ele>
        <time>2021-09-24T06:48:24.159Z</time>
      </trkpt>
      <trkpt lat="49.725194" lon="11.883706">
        <ele>525.132393</ele>
        <time>2021-09-24T06:48:31.145Z</time>
      </trkpt>
      <trkpt lat="49.725201" lon="11.883559">
        <ele>524.985540</ele>
        <time>2021-09-24T06:48:38.155Z</time>
      </trkpt>
      <trkpt lat="49.725232" lon="11.883407">
        <ele>524.826744</ele>
        <time>2021-09-24T06:48:45.160Z</time>
      </trkpt>
      <trkpt lat="49.725274" lon="11.883282">
        <ele>524.686388</ele>
        <time>2021-09-24T06:48:51.157Z</time>
      </trkpt>
      <trkpt lat="49.725344" lon="11.883180">
        <ele>524.538179</ele>
        <time>2021-09-24T06:48:58.137Z</time>
      </trkpt>
      <trkpt lat="49.725395" lon="11.883056">
        <ele>524.391753</ele>
        <time>2021-09-24T06:49:05.156Z</time>
      </trkpt>
      <trkpt lat="49.725435" lon="11.882912">
        <ele>524.235602</ele>
        <time>2021-09-24T06:49:12.160Z</time>
      </trkpt>
      <trkpt lat="49.725489" lon="11.882798">
        <ele>524.094796</ele>
        <time>2021-09-24T06:49:18.158Z</time>
      </trkpt>
      <trkpt lat="49.725557" lon="11.882698">
        <ele>523.950195</ele>
        <time>2021-09-24T06:49:26.137Z</time>
      </trkpt>
      <trkpt lat="49.725631" lon="11.882587">
        <ele>523.791334</ele>
        <time>2021-09-24T06:49:33.137Z</time>
      </trkpt>
      <trkpt lat="49.725713" lon="11.882493">
        <ele>523.634039</ele>
        <time>2021-09-24T06:49:41.158Z</time>
      </trkpt>
      <trkpt lat="49.725806" lon="11.882445">
        <ele>523.482941</ele>
        <time>2021-09-24T06:49:48.157Z</time>
      </trkpt>
      <trkpt lat="49.725911" lon="11.882435">
        <ele>523.320811</ele>
        <time>2021-09-24T06:49:53.162Z</time>
      </trkpt>
      <trkpt lat="49.726002" lon="11.882484">
        <ele>523.172309</ele>
        <time>2021-09-24T06:49:58.157Z</time>
      </trkpt>
      <trkpt lat="49.726097" lon="11.882418">
        <ele>523.011809</ele>
        <time>2021-09-24T06:50:10.155Z</time>
      </trkpt>
      <trkpt lat="49.726187" lon="11.882355">
        <ele>522.859562</ele>
        <time>2021-09-24T06:50:17.155Z</time>
      </trkpt>
      <trkpt lat="49.726281" lon="11.882309">
        <ele>522.707614</ele>
        <time>2021-09-24T06:50:24.164Z</time>
      </trkpt>
      <trkpt lat="49.726389" lon="11.882286">
        <ele>522.539597</ele>
        <time>2021-09-24T06:50:30.153Z</time>
      </trkpt>
      <trkpt lat="49.726499" lon="11.882290">
        <ele>522.167814</ele>
        <time>2021-09-24T06:50:35.155Z</time>
      </trkpt>
      <trkpt lat="49.726591" lon="11.882286">
        <ele>521.740707</ele>
        <time>2021-09-24T06:50:40.140Z</time>
      </trkpt>
      <trkpt lat="49.726688" lon="11.882273">
        <ele>521.288880</ele>
        <time>2021-09-24T06:50:47.153Z</time>
      </trkpt>
      <trkpt lat="49.726745" lon="11.882157">
        <ele>520.851774</ele>
        <time>2021-09-24T06:50:55.155Z</time>
      </trkpt>
      <trkpt lat="49.726820" lon="11.882051">
        <ele>520.380338</ele>
        <time>2021-09-24T06:51:03.149Z</time>
      </trkpt>
      <trkpt lat="49.726909" lon="11.881970">
        <ele>519.901145</ele>
        <time>2021-09-24T06:51:10.164Z</time>
      </trkpt>
      <trkpt lat="49.727004" lon="11.881913">
        <ele>519.428286</ele>
        <time>2021-09-24T06:51:18.144Z</time>
      </trkpt>
      <trkpt lat="49.727100" lon="11.881851">
        <ele>518.945520</ele>
        <time>2021-09-24T06:51:24.155Z</time>
      </trkpt>
      <trkpt lat="49.727191" lon="11.881810">
        <ele>518.505676</ele>
        <time>2021-09-24T06:51:30.153Z</time>
      </trkpt>
      <trkpt lat="49.727276" lon="11.881758">
        <ele>518.081498</ele>
        <time>2021-09-24T06:51:37.154Z</time>
      </trkpt>
      <trkpt lat="49.727347" lon="11.881649">
        <ele>517.617303</ele>
        <time>2021-09-24T06:51:44.148Z</time>
      </trkpt>
      <trkpt lat="49.727403" lon="11.881522">
        <ele>517.156132</ele>
        <time>2021-09-24T06:51:51.152Z</time>
      </trkpt>
      <trkpt lat="49.727440" lon="11.881395">
        <ele>516.738249</ele>
        <time>2021-09-24T06:51:58.161Z</time>
      </trkpt>
      <trkpt lat="49.727504" lon="11.881287">
        <ele>516.298736</ele>
        <time>2021-09-24T06:52:05.156Z</time>
      </trkpt>
      <trkpt lat="49.727558" lon="11.881152">
        <ele>515.822498</ele>
        <time>2021-09-24T06:52:12.141Z</time>
      </trkpt>
      <trkpt lat="49.727620" lon="11.881034">
        <ele>515.366338</ele>
        <time>2021-09-24T06:52:19.159Z</time>
      </trkpt>
      <trkpt lat="49.727784" lon="11.880794">
        <ele>514.318698</ele>
        <time>2021-09-24T06:53:02.165Z</time>
      </trkpt>
      <trkpt lat="49.727864" lon="11.880709">
        <ele>513.997036</ele>
        <time>2021-09-24T06:53:07.157Z</time>
      </trkpt>
      <trkpt lat="49.727948" lon="11.880645">
        <ele>513.781501</ele>
        <time>2021-09-24T06:53:12.140Z</time>
      </trkpt>
      <trkpt lat="49.728042" lon="11.880609">
        <ele>513.558595</ele>
        <time>2021-09-24T06:53:18.149Z</time>
      </trkpt>
      <trkpt lat="49.728139" lon="11.880593">
        <ele>513.334049</ele>
        <time>2021-09-24T06:53:24.166Z</time>
      </trkpt>
      <trkpt lat="49.728235" lon="11.880577">
        <ele>513.111792</ele>
        <time>2021-09-24T06:53:30.153Z</time>
      </trkpt>
      <trkpt lat="49.728316" lon="11.880513">
        <ele>512.902431</ele>
        <time>2021-09-24T06:53:38.141Z</time>
      </trkpt>
      <trkpt lat="49.728333" lon="11.880362">
        <ele>512.674368</ele>
        <time>2021-09-24T06:53:45.157Z</time>
      </trkpt>
      <trkpt lat="49.728472" lon="11.880193">
        <ele>512.267420</ele>
        <time>2021-09-24T06:54:23.137Z</time>
      </trkpt>
      <trkpt lat="49.728571" lon="11.880179">
        <ele>512.038586</ele>
        <time>2021-09-24T06:54:31.150Z</time>
      </trkpt>
      <trkpt lat="49.728671" lon="11.880182">
        <ele>511.808358</ele>
        <time>2021-09-24T06:54:39.155Z</time>
      </trkpt>
      <trkpt lat="49.728767" lon="11.880156">
        <ele>511.584019</ele>
        <time>2021-09-24T06:54:46.146Z</time>
      </trkpt>
      <trkpt lat="49.728867" lon="11.880124">
        <ele>511.348960</ele>
        <time>2021-09-24T06:54:53.150Z</time>
      </trkpt>
      <trkpt lat="49.728969" lon="11.880093">
        <ele>511.109683</ele>
        <time>2021-09-24T06:54:59.173Z</time>
      </trkpt>
      <trkpt lat="49.729066" lon="11.880074">
        <ele>510.884620</ele>
        <time>2021-09-24T06:55:05.152Z</time>
      </trkpt>
      <trkpt lat="49.729171" lon="11.880074">
        <ele>510.642926</ele>
        <time>2021-09-24T06:55:12.152Z</time>
      </trkpt>
      <trkpt lat="49.729274" lon="11.880078">
        <ele>510.405760</ele>
        <time>2021-09-24T06:55:18.160Z</time>
      </trkpt>
      <trkpt lat="49.729371" lon="11.880089">
        <ele>510.181881</ele>
        <time>2021-09-24T06:55:25.159Z</time>
      </trkpt>
      <trkpt lat="49.729462" lon="11.880080">
        <ele>509.986483</ele>
        <time>2021-09-24T06:55:32.174Z</time>
      </trkpt>
      <trkpt lat="49.729563" lon="11.880064">
        <ele>510.046864</ele>
        <time>2021-09-24T06:55:39.150Z</time>
      </trkpt>
      <trkpt lat="49.729608" lon="11.879932">
        <ele>510.104233</ele>
        <time>2021-09-24T06:55:45.156Z</time>
      </trkpt>
      <trkpt lat="49.729584" lon="11.879781">
        <ele>510.164011</ele>
        <time>2021-09-24T06:55:51.176Z</time>
      </trkpt>
      <trkpt lat="49.729569" lon="11.879639">
        <ele>510.219324</ele>
        <time>2021-09-24T06:55:58.169Z</time>
      </trkpt>
      <trkpt lat="49.729557" lon="11.879498">
        <ele>510.273996</ele>
        <time>2021-09-24T06:56:05.145Z</time>
      </trkpt>
      <trkpt lat="49.729545" lon="11.879342">
        <ele>510.334390</ele>
        <time>2021-09-24T06:56:12.169Z</time>
      </trkpt>
      <trkpt lat="49.729534" lon="11.879191">
        <ele>510.392806</ele>
        <time>2021-09-24T06:56:19.131Z</time>
      </trkpt>
      <trkpt lat="49.729521" lon="11.879044">
        <ele>510.449843</ele>
        <time>2021-09-24T06:56:25.141Z</time>
      </trkpt>
      <trkpt lat="49.729518" lon="11.878904">
        <ele>510.503693</ele>
        <time>2021-09-24T06:56:31.156Z</time>
      </trkpt>
      <trkpt lat="49.729569" lon="11.878769">
        <ele>510.563804</ele>
        <time>2021-09-24T06:56:38.146Z</time>
      </trkpt>
      <trkpt lat="49.729665" lon="11.878769">
        <ele>510.620898</ele>
        <time>2021-09-24T06:56:44.151Z</time>
      </trkpt>
      <trkpt lat="49.729761" lon="11.878803">
        <ele>510.679468</ele>
        <time>2021-09-24T06:56:50.153Z</time>
      </trkpt>
      <trkpt lat="49.729854" lon="11.878803">
        <ele>510.734778</ele>
        <time>2021-09-24T06:56:55.156Z</time>
      </trkpt>
      <trkpt lat="49.729952" lon="11.878778">
        <ele>510.793848</ele>
        <time>2021-09-24T06:57:01.177Z</time>
      </trkpt>
      <trkpt lat="49.730044" lon="11.878773">
        <ele>510.848596</ele>
        <time>2021-09-24T06:57:07.170Z</time>
      </trkpt>
      <trkpt lat="49.730146" lon="11.878778">
        <ele>510.909288</ele>
        <time>2021-09-24T06:57:14.153Z</time>
      </trkpt>
      <trkpt lat="49.730251" lon="11.878779">
        <ele>510.971736</ele>
        <time>2021-09-24T06:57:22.162Z</time>
      </trkpt>
      <trkpt lat="49.730354" lon="11.878757">
        <ele>511.033573</ele>
        <time>2021-09-24T06:57:28.146Z</time>
      </trkpt>
      <trkpt lat="49.730446" lon="11.878736">
        <ele>510.807872</ele>
        <time>2021-09-24T06:57:34.149Z</time>
      </trkpt>
      <trkpt lat="49.730543" lon="11.878731">
        <ele>510.410958</ele>
        <time>2021-09-24T06:57:40.160Z</time>
      </trkpt>
      <trkpt lat="49.730644" lon="11.878718">
        <ele>509.996478</ele>
        <time>2021-09-24T06:57:48.153Z</time>
      </trkpt>
      <trkpt lat="49.730743" lon="11.878713">
        <ele>509.591389</ele>
        <time>2021-09-24T06:57:54.152Z</time>
      </trkpt>
      <trkpt lat="49.730840" lon="11.878708">
        <ele>509.194475</ele>
        <time>2021-09-24T06:58:00.142Z</time>
      </trkpt>
      <trkpt lat="49.730939" lon="11.878692">
        <ele>508.787399</ele>
        <time>2021-09-24T06:58:07.142Z</time>
      </trkpt>
      <trkpt lat="49.731033" lon="11.878701">
        <ele>508.402239</ele>
        <time>2021-09-24T06:58:14.146Z</time>
      </trkpt>
      <trkpt lat="49.731139" lon="11.878682">
        <ele>507.965838</ele>
        <time>2021-09-24T06:58:20.159Z</time>
      </trkpt>
      <trkpt lat="49.731238" lon="11.878690">
        <ele>507.560413</ele>
        <time>2021-09-24T06:58:26.155Z</time>
      </trkpt>
      <trkpt lat="49.731334" lon="11.878678">
        <ele>507.166530</ele>
        <time>2021-09-24T06:58:33.152Z</time>
      </trkpt>
      <trkpt lat="49.731432" lon="11.878647">
        <ele>506.757454</ele>
        <time>2021-09-24T06:58:40.152Z</time>
      </trkpt>
      <trkpt lat="49.731528" lon="11.878623">
        <ele>506.359757</ele>
        <time>2021-09-24T06:58:47.141Z</time>
      </trkpt>
      <trkpt lat="49.731615" lon="11.878702">
        <ele>505.947202</ele>
        <time>2021-09-24T06:58:54.165Z</time>
      </trkpt>
      <trkpt lat="49.731640" lon="11.878857">
        <ele>505.524911</ele>
        <time>2021-09-24T06:59:01.157Z</time>
      </trkpt>
      <trkpt lat="49.731677" lon="11.878999">
        <ele>505.120195</ele>
        <time>2021-09-24T06:59:09.151Z</time>
      </trkpt>
      <trkpt lat="49.731724" lon="11.879136">
        <ele>504.710201</ele>
        <time>2021-09-24T06:59:16.154Z</time>
      </trkpt>
      <trkpt lat="49.731761" lon="11.879282">
        <ele>504.295661</ele>
        <time>2021-09-24T06:59:22.153Z</time>
      </trkpt>
      <trkpt lat="49.731822" lon="11.879401">
        <ele>503.894182</ele>
        <time>2021-09-24T06:59:28.152Z</time>
      </trkpt>
      <trkpt lat="49.731842" lon="11.879543">
        <ele>503.409367</ele>
        <time>2021-09-24T06:59:35.173Z</time>
      </trkpt>
      <trkpt lat="49.731866" lon="11.879692">
        <ele>502.785470</ele>
        <time>2021-09-24T06:59:42.157Z</time>
      </trkpt>
      <trkpt lat="49.731882" lon="11.879832">
        <ele>502.207830</ele>
        <time>2021-09-24T06:59:48.158Z</time>
      </trkpt>
      <trkpt lat="49.731898" lon="11.879973">
        <ele>501.626190</ele>
        <time>2021-09-24T06:59:54.163Z</time>
      </trkpt>
      <trkpt lat="49.731921" lon="11.880109">
        <ele>501.055025</ele>
        <time>2021-09-24T07:00:00.136Z</time>
      </trkpt>
      <trkpt lat="49.731944" lon="11.880255">
        <ele>500.444468</ele>
        <time>2021-09-24T07:00:07.166Z</time>
      </trkpt>
      <trkpt lat="49.731949" lon="11.880399">
        <ele>499.858557</ele>
        <time>2021-09-24T07:00:13.161Z</time>
      </trkpt>
      <trkpt lat="49.731956" lon="11.880548">
        <ele>499.251578</ele>
        <time>2021-09-24T07:00:19.152Z</time>
      </trkpt>
      <trkpt lat="49.731985" lon="11.880701">
        <ele>498.603768</ele>
        <time>2021-09-24T07:00:26.172Z</time>
      </trkpt>
      <trkpt lat="49.731992" lon="11.880841">
        <ele>498.033254</ele>
        <time>2021-09-24T07:00:32.147Z</time>
      </trkpt>
      <trkpt lat="49.732003" lon="11.880981">
        <ele>497.460252</ele>
        <time>2021-09-24T07:00:38.142Z</time>
      </trkpt>
      <trkpt lat="49.732063" lon="11.881112">
        <ele>496.807924</ele>
        <time>2021-09-24T07:00:45.139Z</time>
      </trkpt>
      <trkpt lat="49.732150" lon="11.881192">
        <ele>496.171750</ele>
        <time>2021-09-24T07:00:52.157Z</time>
      </trkpt>
      <trkpt lat="49.732236" lon="11.881244">
        <ele>495.591346</ele>
        <time>2021-09-24T07:00:59.157Z</time>
      </trkpt>
      <trkpt lat="49.732334" lon="11.881292">
        <ele>494.945197</ele>
        <time>2021-09-24T07:01:06.148Z</time>
      </trkpt>
      <trkpt lat="49.732427" lon="11.881356">
        <ele>494.305388</ele>
        <time>2021-09-24T07:01:13.163Z</time>
      </trkpt>
      <trkpt lat="49.732508" lon="11.881440">
        <ele>493.692431</ele>
        <time>2021-09-24T07:01:20.151Z</time>
      </trkpt>
      <trkpt lat="49.732583" lon="11.881526">
        <ele>493.105622</ele>
        <time>2021-09-24T07:01:26.161Z</time>
      </trkpt>
      <trkpt lat="49.732660" lon="11.881616">
        <ele>492.499012</ele>
        <time>2021-09-24T07:01:32.173Z</time>
      </trkpt>
      <trkpt lat="49.732739" lon="11.881701">
        <ele>492.069495</ele>
        <time>2021-09-24T07:01:38.171Z</time>
      </trkpt>
      <trkpt lat="49.732833" lon="11.881725">
        <ele>491.681820</ele>
        <time>2021-09-24T07:01:45.164Z</time>
      </trkpt>
      <trkpt lat="49.732927" lon="11.881674">
        <ele>491.276482</ele>
        <time>2021-09-24T07:01:54.145Z</time>
      </trkpt>
      <trkpt lat="49.733019" lon="11.881636">
        <ele>490.889008</ele>
        <time>2021-09-24T07:02:00.151Z</time>
      </trkpt>
      <trkpt lat="49.733120" lon="11.881614">
        <ele>490.473970</ele>
        <time>2021-09-24T07:02:06.140Z</time>
      </trkpt>
      <trkpt lat="49.733219" lon="11.881589">
        <ele>490.065793</ele>
        <time>2021-09-24T07:02:14.174Z</time>
      </trkpt>
      <trkpt lat="49.733313" lon="11.881549">
        <ele>489.669088</ele>
        <time>2021-09-24T07:02:22.126Z</time>
      </trkpt>
      <trkpt lat="49.733400" lon="11.881509">
        <ele>489.299770</ele>
        <time>2021-09-24T07:02:29.147Z</time>
      </trkpt>
      <trkpt lat="49.733501" lon="11.881467">
        <ele>488.874199</ele>
        <time>2021-09-24T07:02:39.150Z</time>
      </trkpt>
      <trkpt lat="49.733595" lon="11.881403">
        <ele>488.456299</ele>
        <time>2021-09-24T07:02:45.141Z</time>
      </trkpt>
      <trkpt lat="49.733682" lon="11.881341">
        <ele>488.066533</ele>
        <time>2021-09-24T07:02:51.150Z</time>
      </trkpt>
      <trkpt lat="49.733780" lon="11.881316">
        <ele>487.662371</ele>
        <time>2021-09-24T07:02:57.157Z</time>
      </trkpt>
      <trkpt lat="49.733882" lon="11.881311">
        <ele>487.247109</ele>
        <time>2021-09-24T07:03:03.143Z</time>
      </trkpt>
      <trkpt lat="49.733975" lon="11.881322">
        <ele>486.867573</ele>
        <time>2021-09-24T07:03:08.136Z</time>
      </trkpt>
      <trkpt lat="49.734071" lon="11.881303">
        <ele>486.473751</ele>
        <time>2021-09-24T07:03:15.162Z</time>
      </trkpt>
      <trkpt lat="49.734170" lon="11.881279">
        <ele>486.065989</ele>
        <time>2021-09-24T07:03:22.153Z</time>
      </trkpt>
      <trkpt lat="49.734271" lon="11.881329">
        <ele>485.634479</ele>
        <time>2021-09-24T07:03:28.166Z</time>
      </trkpt>
      <trkpt lat="49.734356" lon="11.881381">
        <ele>485.262544</ele>
        <time>2021-09-24T07:03:33.141Z</time>
      </trkpt>
      <trkpt lat="49.734454" lon="11.881400">
        <ele>484.821218</ele>
        <time>2021-09-24T07:03:41.158Z</time>
      </trkpt>
      <trkpt lat="49.734527" lon="11.881490">
        <ele>484.370673</ele>
        <time>2021-09-24T07:03:47.152Z</time>
      </trkpt>
      <trkpt lat="49.734608" lon="11.881572">
        <ele>483.903445</ele>
        <time>2021-09-24T07:03:52.158Z</time>
      </trkpt>
      <trkpt lat="49.734677" lon="11.881683">
        <ele>483.422988</ele>
        <time>2021-09-24T07:03:58.155Z</time>
      </trkpt>
      <trkpt lat="49.734730" lon="11.881804">
        <ele>482.966984</ele>
        <time>2021-09-24T07:04:05.172Z</time>
      </trkpt>
      <trkpt lat="49.734763" lon="11.881937">
        <ele>482.522540</ele>
        <time>2021-09-24T07:04:11.166Z</time>
      </trkpt>
      <trkpt lat="49.734812" lon="11.882067">
        <ele>482.053051</ele>
        <time>2021-09-24T07:04:18.164Z</time>
      </trkpt>
      <trkpt lat="49.734848" lon="11.882208">
        <ele>481.580096</ele>
        <time>2021-09-24T07:04:25.164Z</time>
      </trkpt>
      <trkpt lat="49.734877" lon="11.882346">
        <ele>481.127393</ele>
        <time>2021-09-24T07:04:31.171Z</time>
      </trkpt>
      <trkpt lat="49.734901" lon="11.882484">
        <ele>480.681561</ele>
        <time>2021-09-24T07:04:37.175Z</time>
      </trkpt>
      <trkpt lat="49.734974" lon="11.882583">
        <ele>480.213005</ele>
        <time>2021-09-24T07:04:43.154Z</time>
      </trkpt>
      <trkpt lat="49.735069" lon="11.882606">
        <ele>479.748877</ele>
        <time>2021-09-24T07:04:49.157Z</time>
      </trkpt>
      <trkpt lat="49.735154" lon="11.882544">
        <ele>479.295290</ele>
        <time>2021-09-24T07:04:57.153Z</time>
      </trkpt>
      <trkpt lat="49.735279" lon="11.882474">
        <ele>478.653633</ele>
        <time>2021-09-24T07:05:19.166Z</time>
      </trkpt>
      <trkpt lat="49.735376" lon="11.882419">
        <ele>478.154982</ele>
        <time>2021-09-24T07:05:25.160Z</time>
      </trkpt>
      <trkpt lat="49.735472" lon="11.882355">
        <ele>477.650423</ele>
        <time>2021-09-24T07:05:31.158Z</time>
      </trkpt>
      <trkpt lat="49.735568" lon="11.882324">
        <ele>477.177063</ele>
        <time>2021-09-24T07:05:36.156Z</time>
      </trkpt>
      <trkpt lat="49.735660" lon="11.882308">
        <ele>476.730199</ele>
        <time>2021-09-24T07:05:43.157Z</time>
      </trkpt>
      <trkpt lat="49.735735" lon="11.882418">
        <ele>476.349778</ele>
        <time>2021-09-24T07:05:50.170Z</time>
      </trkpt>
      <trkpt lat="49.735784" lon="11.882541">
        <ele>476.234042</ele>
        <time>2021-09-24T07:05:56.172Z</time>
      </trkpt>
      <trkpt lat="49.735863" lon="11.882650">
        <ele>476.102859</ele>
        <time>2021-09-24T07:06:03.164Z</time>
      </trkpt>
      <trkpt lat="49.735941" lon="11.882737">
        <ele>475.983690</ele>
        <time>2021-09-24T07:06:09.176Z</time>
      </trkpt>
      <trkpt lat="49.736005" lon="11.882844">
        <ele>475.866912</ele>
        <time>2021-09-24T07:06:15.158Z</time>
      </trkpt>
      <trkpt lat="49.736068" lon="11.882963">
        <ele>475.743696</ele>
        <time>2021-09-24T07:06:22.142Z</time>
      </trkpt>
      <trkpt lat="49.736130" lon="11.883066">
        <ele>475.630953</ele>
        <time>2021-09-24T07:06:28.149Z</time>
      </trkpt>
      <trkpt lat="49.736183" lon="11.883196">
        <ele>475.507837</ele>
        <time>2021-09-24T07:06:35.157Z</time>
      </trkpt>
      <trkpt lat="49.736246" lon="11.883310">
        <ele>475.387693</ele>
        <time>2021-09-24T07:06:41.161Z</time>
      </trkpt>
      <trkpt lat="49.736330" lon="11.883382">
        <ele>475.268681</ele>
        <time>2021-09-24T07:07:00.140Z</time>
      </trkpt>
      <trkpt lat="49.736423" lon="11.883326">
        <ele>475.145001</ele>
        <time>2021-09-24T07:07:07.161Z</time>
      </trkpt>
      <trkpt lat="49.736479" lon="11.883203">
        <ele>475.024488</ele>
        <time>2021-09-24T07:07:13.149Z</time>
      </trkpt>
      <trkpt lat="49.736494" lon="11.883059">
        <ele>474.907656</ele>
        <time>2021-09-24T07:07:18.146Z</time>
      </trkpt>
      <trkpt lat="49.736561" lon="11.882936">
        <ele>474.778809</ele>
        <time>2021-09-24T07:07:25.155Z</time>
      </trkpt>
      <trkpt lat="49.736655" lon="11.882876">
        <ele>474.652786</ele>
        <time>2021-09-24T07:07:34.145Z</time>
      </trkpt>
      <trkpt lat="49.736762" lon="11.882865">
        <ele>474.519884</ele>
        <time>2021-09-24T07:07:41.179Z</time>
      </trkpt>
      <trkpt lat="49.736860" lon="11.882837">
        <ele>474.396375</ele>
        <time>2021-09-24T07:07:47.149Z</time>
      </trkpt>
      <trkpt lat="49.736959" lon="11.882799">
        <ele>474.269960</ele>
        <time>2021-09-24T07:07:54.163Z</time>
      </trkpt>
      <trkpt lat="49.737036" lon="11.882719">
        <ele>474.150701</ele>
        <time>2021-09-24T07:08:04.158Z</time>
      </trkpt>
      <trkpt lat="49.737136" lon="11.882743">
        <ele>473.942388</ele>
        <time>2021-09-24T07:08:11.185Z</time>
      </trkpt>
      <trkpt lat="49.737233" lon="11.882758">
        <ele>473.741718</ele>
        <time>2021-09-24T07:08:17.156Z</time>
      </trkpt>
      <trkpt lat="49.737325" lon="11.882786">
        <ele>473.548705</ele>
        <time>2021-09-24T07:08:26.131Z</time>
      </trkpt>
      <trkpt lat="49.737425" lon="11.882794">
        <ele>473.342579</ele>
        <time>2021-09-24T07:08:33.163Z</time>
      </trkpt>
      <trkpt lat="49.737520" lon="11.882802">
        <ele>473.146731</ele>
        <time>2021-09-24T07:08:38.145Z</time>
      </trkpt>
      <trkpt lat="49.737621" lon="11.882826">
        <ele>472.936383</ele>
        <time>2021-09-24T07:08:45.157Z</time>
      </trkpt>
      <trkpt lat="49.737722" lon="11.882867">
        <ele>472.721437</ele>
        <time>2021-09-24T07:08:51.156Z</time>
      </trkpt>
      <trkpt lat="49.737824" lon="11.882880">
        <ele>472.510758</ele>
        <time>2021-09-24T07:08:58.161Z</time>
      </trkpt>
      <trkpt lat="49.737920" lon="11.882910">
        <ele>472.309150</ele>
        <time>2021-09-24T07:09:04.146Z</time>
      </trkpt>
      <trkpt lat="49.738012" lon="11.882970">
        <ele>472.103632</ele>
        <time>2021-09-24T07:09:11.150Z</time>
      </trkpt>
      <trkpt lat="49.738107" lon="11.882995">
        <ele>471.905265</ele>
        <time>2021-09-24T07:09:19.160Z</time>
      </trkpt>
      <trkpt lat="49.738204" lon="11.883015">
        <ele>471.703824</ele>
        <time>2021-09-24T07:09:25.156Z</time>
      </trkpt>
      <trkpt lat="49.738294" lon="11.883056">
        <ele>471.510695</ele>
        <time>2021-09-24T07:09:30.156Z</time>
      </trkpt>
      <trkpt lat="49.738391" lon="11.883082">
        <ele>471.308045</ele>
        <time>2021-09-24T07:09:37.162Z</time>
      </trkpt>
      <trkpt lat="49.738485" lon="11.883090">
        <ele>471.114253</ele>
        <time>2021-09-24T07:09:44.146Z</time>
      </trkpt>
      <trkpt lat="49.738577" lon="11.883123">
        <ele>470.919847</ele>
        <time>2021-09-24T07:09:50.150Z</time>
      </trkpt>
      <trkpt lat="49.738665" lon="11.883161">
        <ele>470.731776</ele>
        <time>2021-09-24T07:09:56.169Z</time>
      </trkpt>
      <trkpt lat="49.738755" lon="11.883181">
        <ele>470.544609</ele>
        <time>2021-09-24T07:10:03.153Z</time>
      </trkpt>
      <trkpt lat="49.738858" lon="11.883177">
        <ele>470.273097</ele>
        <time>2021-09-24T07:10:10.162Z</time>
      </trkpt>
      <trkpt lat="49.738950" lon="11.883211">
        <ele>469.986920</ele>
        <time>2021-09-24T07:10:18.151Z</time>
      </trkpt>
      <trkpt lat="49.739043" lon="11.883257">
        <ele>469.691521</ele>
        <time>2021-09-24T07:10:27.172Z</time>
      </trkpt>
      <trkpt lat="49.739138" lon="11.883294">
        <ele>469.395131</ele>
        <time>2021-09-24T07:10:34.153Z</time>
      </trkpt>
      <trkpt lat="49.739230" lon="11.883329">
        <ele>469.108494</ele>
        <time>2021-09-24T07:10:42.133Z</time>
      </trkpt>
      <trkpt lat="49.739321" lon="11.883389">
        <ele>468.809219</ele>
        <time>2021-09-24T07:10:48.163Z</time>
      </trkpt>
      <trkpt lat="49.739415" lon="11.883455">
        <ele>468.496911</ele>
        <time>2021-09-24T07:10:55.164Z</time>
      </trkpt>
      <trkpt lat="49.739508" lon="11.883507">
        <ele>468.197731</ele>
        <time>2021-09-24T07:11:02.169Z</time>
      </trkpt>
      <trkpt lat="49.739594" lon="11.883551">
        <ele>467.923682</ele>
        <time>2021-09-24T07:11:08.165Z</time>
      </trkpt>
      <trkpt lat="49.739690" lon="11.883601">
        <ele>467.617221</ele>
        <time>2021-09-24T07:11:15.149Z</time>
      </trkpt>
      <trkpt lat="49.739784" lon="11.883629">
        <ele>467.327600</ele>
        <time>2021-09-24T07:11:21.167Z</time>
      </trkpt>
      <trkpt lat="49.739881" lon="11.883645">
        <ele>467.032462</ele>
        <time>2021-09-24T07:11:28.174Z</time>
      </trkpt>
      <trkpt lat="49.739979" lon="11.883681">
        <ele>466.727721</ele>
        <time>2021-09-24T07:11:35.157Z</time>
      </trkpt>
      <trkpt lat="49.740070" lon="11.883753">
        <ele>466.418494</ele>
        <time>2021-09-24T07:11:42.171Z</time>
      </trkpt>
      <trkpt lat="49.740150" lon="11.883823">
        <ele>466.140435</ele>
        <time>2021-09-24T07:11:48.141Z</time>
      </trkpt>
      <trkpt lat="49.740235" lon="11.883898">
        <ele>465.844394</ele>
        <time>2021-09-24T07:11:55.173Z</time>
      </trkpt>
      <trkpt lat="49.740314" lon="11.883969">
        <ele>465.567988</ele>
        <time>2021-09-24T07:12:01.172Z</time>
      </trkpt>
      <trkpt lat="49.740397" lon="11.884058">
        <ele>465.262468</ele>
        <time>2021-09-24T07:12:08.165Z</time>
      </trkpt>
      <trkpt lat="49.740475" lon="11.884131">
        <ele>465.007198</ele>
        <time>2021-09-24T07:12:14.168Z</time>
      </trkpt>
      <trkpt lat="49.740550" lon="11.884205">
        <ele>464.919173</ele>
        <time>2021-09-24T07:12:20.163Z</time>
      </trkpt>
      <trkpt lat="49.740625" lon="11.884296">
        <ele>464.824855</ele>
        <time>2021-09-24T07:12:27.161Z</time>
      </trkpt>
      <trkpt lat="49.740698" lon="11.884415">
        <ele>464.719922</ele>
        <time>2021-09-24T07:12:34.164Z</time>
      </trkpt>
      <trkpt lat="49.740773" lon="11.884522">
        <ele>464.618969</ele>
        <time>2021-09-24T07:12:41.158Z</time>
      </trkpt>
      <trkpt lat="49.740842" lon="11.884618">
        <ele>464.527143</ele>
        <time>2021-09-24T07:12:47.175Z</time>
      </trkpt>
      <trkpt lat="49.740903" lon="11.884747">
        <ele>464.424916</ele>
        <time>2021-09-24T07:12:54.157Z</time>
      </trkpt>
      <trkpt lat="49.740959" lon="11.884860">
        <ele>464.333846</ele>
        <time>2021-09-24T07:13:00.160Z</time>
      </trkpt>
      <trkpt lat="49.741009" lon="11.884990">
        <ele>464.237097</ele>
        <time>2021-09-24T07:13:06.158Z</time>
      </trkpt>
      <trkpt lat="49.741063" lon="11.885110">
        <ele>464.143580</ele>
        <time>2021-09-24T07:13:12.168Z</time>
      </trkpt>
      <trkpt lat="49.741138" lon="11.885212">
        <ele>464.044767</ele>
        <time>2021-09-24T07:13:19.165Z</time>
      </trkpt>
      <trkpt lat="49.741208" lon="11.885316">
        <ele>463.948733</ele>
        <time>2021-09-24T07:13:26.172Z</time>
      </trkpt>
      <trkpt lat="49.741288" lon="11.885410">
        <ele>463.849326</ele>
        <time>2021-09-24T07:13:33.174Z</time>
      </trkpt>
      <trkpt lat="49.741377" lon="11.885482">
        <ele>463.749940</ele>
        <time>2021-09-24T07:13:40.159Z</time>
      </trkpt>
      <trkpt lat="49.741454" lon="11.885556">
        <ele>463.660240</ele>
        <time>2021-09-24T07:13:46.167Z</time>
      </trkpt>
      <trkpt lat="49.741537" lon="11.885647">
        <ele>463.559574</ele>
        <time>2021-09-24T07:13:53.167Z</time>
      </trkpt>
      <trkpt lat="49.741612" lon="11.885726">
        <ele>463.469790</ele>
        <time>2021-09-24T07:13:59.162Z</time>
      </trkpt>
      <trkpt lat="49.741698" lon="11.885795">
        <ele>463.373923</ele>
        <time>2021-09-24T07:14:06.159Z</time>
      </trkpt>
      <trkpt lat="49.741787" lon="11.885857">
        <ele>463.277334</ele>
        <time>2021-09-24T07:14:13.170Z</time>
      </trkpt>
      <trkpt lat="49.741876" lon="11.885916">
        <ele>463.278334</ele>
        <time>2021-09-24T07:14:19.164Z</time>
      </trkpt>
      <trkpt lat="49.741968" lon="11.885967">
        <ele>463.349742</ele>
        <time>2021-09-24T07:14:26.168Z</time>
      </trkpt>
      <trkpt lat="49.742050" lon="11.886047">
        <ele>463.420574</ele>
        <time>2021-09-24T07:14:33.163Z</time>
      </trkpt>
      <trkpt lat="49.742123" lon="11.886132">
        <ele>463.487329</ele>
        <time>2021-09-24T07:14:39.178Z</time>
      </trkpt>
      <trkpt lat="49.742144" lon="11.886291">
        <ele>463.563960</ele>
        <time>2021-09-24T07:14:46.166Z</time>
      </trkpt>
      <trkpt lat="49.742132" lon="11.886447">
        <ele>463.638143</ele>
        <time>2021-09-24T07:14:53.151Z</time>
      </trkpt>
      <trkpt lat="49.742101" lon="11.886598">
        <ele>463.712957</ele>
        <time>2021-09-24T07:15:00.166Z</time>
      </trkpt>
      <trkpt lat="49.742063" lon="11.886734">
        <ele>463.782922</ele>
        <time>2021-09-24T07:15:06.161Z</time>
      </trkpt>
      <trkpt lat="49.742039" lon="11.886874">
        <ele>463.851316</ele>
        <time>2021-09-24T07:15:13.175Z</time>
      </trkpt>
      <trkpt lat="49.742024" lon="11.887019">
        <ele>463.920657</ele>
        <time>2021-09-24T07:15:21.155Z</time>
      </trkpt>
      <trkpt lat="49.742011" lon="11.887161">
        <ele>463.988379</ele>
        <time>2021-09-24T07:15:28.144Z</time>
      </trkpt>
      <trkpt lat="49.742015" lon="11.887311">
        <ele>464.059269</ele>
        <time>2021-09-24T07:15:36.176Z</time>
      </trkpt>
      <trkpt lat="49.741999" lon="11.887448">
        <ele>464.125008</ele>
        <time>2021-09-24T07:15:44.156Z</time>
      </trkpt>
      <trkpt lat="49.741987" lon="11.887590">
        <ele>464.192632</ele>
        <time>2021-09-24T07:15:49.170Z</time>
      </trkpt>
      <trkpt lat="49.741992" lon="11.887736">
        <ele>464.261670</ele>
        <time>2021-09-24T07:15:56.166Z</time>
      </trkpt>
      <trkpt lat="49.742006" lon="11.887884">
        <ele>464.332300</ele>
        <time>2021-09-24T07:16:02.162Z</time>
      </trkpt>
      <trkpt lat="49.742013" lon="11.888034">
        <ele>464.403314</ele>
        <time>2021-09-24T07:16:08.179Z</time>
      </trkpt>
      <trkpt lat="49.742020" lon="11.888182">
        <ele>464.473387</ele>
        <time>2021-09-24T07:16:14.171Z</time>
      </trkpt>
      <trkpt lat="49.742036" lon="11.888322">
        <ele>464.540521</ele>
        <time>2021-09-24T07:16:21.151Z</time>
      </trkpt>
      <trkpt lat="49.742062" lon="11.888467">
        <ele>464.449568</ele>
        <time>2021-09-24T07:16:28.161Z</time>
      </trkpt>
      <trkpt lat="49.742079" lon="11.888610">
        <ele>464.333145</ele>
        <time>2021-09-24T07:16:35.157Z</time>
      </trkpt>
      <trkpt lat="49.742097" lon="11.888767">
        <ele>464.205471</ele>
        <time>2021-09-24T07:16:42.150Z</time>
      </trkpt>
      <trkpt lat="49.742108" lon="11.888915">
        <ele>464.086184</ele>
        <time>2021-09-24T07:16:48.174Z</time>
      </trkpt>
      <trkpt lat="49.742125" lon="11.889061">
        <ele>463.967398</ele>
        <time>2021-09-24T07:16:55.169Z</time>
      </trkpt>
      <trkpt lat="49.742139" lon="11.889212">
        <ele>463.845253</ele>
        <time>2021-09-24T07:17:02.164Z</time>
      </trkpt>
      <trkpt lat="49.742140" lon="11.889368">
        <ele>463.720336</ele>
        <time>2021-09-24T07:17:09.181Z</time>
      </trkpt>
      <trkpt lat="49.742130" lon="11.889520">
        <ele>463.597999</ele>
        <time>2021-09-24T07:17:16.170Z</time>
      </trkpt>
      <trkpt lat="49.742135" lon="11.889659">
        <ele>463.486528</ele>
        <time>2021-09-24T07:17:22.158Z</time>
      </trkpt>
      <trkpt lat="49.742138" lon="11.889815">
        <ele>463.361561</ele>
        <time>2021-09-24T07:17:29.176Z</time>
      </trkpt>
      <trkpt lat="49.742131" lon="11.889954">
        <ele>463.249925</ele>
        <time>2021-09-24T07:17:36.161Z</time>
      </trkpt>
      <trkpt lat="49.742130" lon="11.890113">
        <ele>463.122606</ele>
        <time>2021-09-24T07:17:42.172Z</time>
      </trkpt>
      <trkpt lat="49.742137" lon="11.890258">
        <ele>463.006180</ele>
        <time>2021-09-24T07:17:48.166Z</time>
      </trkpt>
      <trkpt lat="49.742124" lon="11.890407">
        <ele>462.885791</ele>
        <time>2021-09-24T07:17:55.178Z</time>
      </trkpt>
      <trkpt lat="49.742140" lon="11.890556">
        <ele>462.764850</ele>
        <time>2021-09-24T07:18:02.150Z</time>
      </trkpt>
      <trkpt lat="49.742149" lon="11.890704">
        <ele>462.645821</ele>
        <time>2021-09-24T07:18:08.172Z</time>
      </trkpt>
      <trkpt lat="49.742144" lon="11.890845">
        <ele>462.532751</ele>
        <time>2021-09-24T07:18:14.162Z</time>
      </trkpt>
      <trkpt lat="49.742143" lon="11.890988">
        <ele>462.418243</ele>
        <time>2021-09-24T07:18:21.162Z</time>
      </trkpt>
      <trkpt lat="49.742158" lon="11.891146">
        <ele>462.306172</ele>
        <time>2021-09-24T07:18:28.175Z</time>
      </trkpt>
      <trkpt lat="49.742175" lon="11.891295">
        <ele>462.243927</ele>
        <time>2021-09-24T07:18:35.147Z</time>
      </trkpt>
      <trkpt lat="49.742211" lon="11.891441">
        <ele>462.179640</ele>
        <time>2021-09-24T07:18:42.164Z</time>
      </trkpt>
      <trkpt lat="49.742246" lon="11.891574">
        <ele>462.120562</ele>
        <time>2021-09-24T07:18:48.166Z</time>
      </trkpt>
      <trkpt lat="49.742284" lon="11.891707">
        <ele>462.060737</ele>
        <time>2021-09-24T07:18:55.167Z</time>
      </trkpt>
      <trkpt lat="49.742321" lon="11.891851">
        <ele>461.996986</ele>
        <time>2021-09-24T07:19:03.165Z</time>
      </trkpt>
      <trkpt lat="49.742359" lon="11.891981">
        <ele>461.938289</ele>
        <time>2021-09-24T07:19:09.165Z</time>
      </trkpt>
      <trkpt lat="49.742387" lon="11.892121">
        <ele>461.877999</ele>
        <time>2021-09-24T07:19:15.173Z</time>
      </trkpt>
      <trkpt lat="49.742419" lon="11.892269">
        <ele>461.813795</ele>
        <time>2021-09-24T07:19:21.166Z</time>
      </trkpt>
      <trkpt lat="49.742453" lon="11.892405">
        <ele>461.753806</ele>
        <time>2021-09-24T07:19:28.166Z</time>
      </trkpt>
      <trkpt lat="49.742464" lon="11.892547">
        <ele>461.694970</ele>
        <time>2021-09-24T07:19:34.176Z</time>
      </trkpt>
      <trkpt lat="49.742459" lon="11.892695">
        <ele>461.634001</ele>
        <time>2021-09-24T07:19:40.171Z</time>
      </trkpt>
      <trkpt lat="49.742468" lon="11.892840">
        <ele>461.574075</ele>
        <time>2021-09-24T07:19:47.164Z</time>
      </trkpt>
      <trkpt lat="49.742476" lon="11.892989">
        <ele>461.512567</ele>
        <time>2021-09-24T07:19:54.173Z</time>
      </trkpt>
      <trkpt lat="49.742474" lon="11.893129">
        <ele>461.454958</ele>
        <time>2021-09-24T07:20:00.156Z</time>
      </trkpt>
      <trkpt lat="49.742487" lon="11.893273">
        <ele>461.395143</ele>
        <time>2021-09-24T07:20:07.162Z</time>
      </trkpt>
      <trkpt lat="49.742482" lon="11.893415">
        <ele>461.336639</ele>
        <time>2021-09-24T07:20:14.157Z</time>
      </trkpt>
      <trkpt lat="49.742484" lon="11.893561">
        <ele>461.276563</ele>
        <time>2021-09-24T07:20:24.154Z</time>
      </trkpt>
      <trkpt lat="49.742522" lon="11.893694">
        <ele>461.216739</ele>
        <time>2021-09-24T07:20:33.158Z</time>
      </trkpt>
      <trkpt lat="49.742544" lon="11.893843">
        <ele>461.143453</ele>
        <time>2021-09-24T07:20:41.135Z</time>
      </trkpt>
      <trkpt lat="49.742568" lon="11.894025">
        <ele>461.033869</ele>
        <time>2021-09-24T07:20:50.164Z</time>
      </trkpt>
      <trkpt lat="49.742620" lon="11.894155">
        <ele>460.943672</ele>
        <time>2021-09-24T07:20:56.166Z</time>
      </trkpt>
      <trkpt lat="49.742674" lon="11.894273">
        <ele>460.858370</ele>
        <time>2021-09-24T07:21:04.141Z</time>
      </trkpt>
      <trkpt lat="49.742747" lon="11.894386">
        <ele>460.764107</ele>
        <time>2021-09-24T07:21:12.177Z</time>
      </trkpt>
      <trkpt lat="49.742802" lon="11.894517">
        <ele>460.671945</ele>
        <time>2021-09-24T07:21:20.170Z</time>
      </trkpt>
      <trkpt lat="49.742848" lon="11.894638">
        <ele>460.589125</ele>
        <time>2021-09-24T07:21:27.252Z</time>
      </trkpt>
      <trkpt lat="49.742899" lon="11.894777">
        <ele>460.494827</ele>
        <time>2021-09-24T07:21:37.177Z</time>
      </trkpt>
      <trkpt lat="49.742946" lon="11.894917">
        <ele>460.401754</ele>
        <time>2021-09-24T07:21:44.172Z</time>
      </trkpt>
      <trkpt lat="49.743010" lon="11.895035">
        <ele>460.310870</ele>
        <time>2021-09-24T07:21:51.179Z</time>
      </trkpt>
      <trkpt lat="49.743062" lon="11.895154">
        <ele>460.226123</ele>
        <time>2021-09-24T07:21:58.177Z</time>
      </trkpt>
      <trkpt lat="49.743111" lon="11.895281">
        <ele>460.138861</ele>
        <time>2021-09-24T07:22:05.177Z</time>
      </trkpt>
      <trkpt lat="49.743163" lon="11.895402">
        <ele>460.053134</ele>
        <time>2021-09-24T07:22:12.172Z</time>
      </trkpt>
      <trkpt lat="49.743223" lon="11.895519">
        <ele>459.965017</ele>
        <time>2021-09-24T07:22:19.179Z</time>
      </trkpt>
      <trkpt lat="49.743268" lon="11.895663">
        <ele>459.870653</ele>
        <time>2021-09-24T07:22:26.165Z</time>
      </trkpt>
      <trkpt lat="49.743297" lon="11.895797">
        <ele>459.787285</ele>
        <time>2021-09-24T07:22:32.174Z</time>
      </trkpt>
      <trkpt lat="49.743317" lon="11.895947">
        <ele>459.696930</ele>
        <time>2021-09-24T07:22:39.174Z</time>
      </trkpt>
      <trkpt lat="49.743345" lon="11.896079">
        <ele>459.614969</ele>
        <time>2021-09-24T07:22:46.173Z</time>
      </trkpt>
      <trkpt lat="49.743376" lon="11.896226">
        <ele>459.537530</ele>
        <time>2021-09-24T07:22:53.175Z</time>
      </trkpt>
      <trkpt lat="49.743401" lon="11.896364">
        <ele>459.549523</ele>
        <time>2021-09-24T07:22:59.164Z</time>
      </trkpt>
      <trkpt lat="49.743432" lon="11.896497">
        <ele>459.561353</ele>
        <time>2021-09-24T07:23:05.177Z</time>
      </trkpt>
      <trkpt lat="49.743458" lon="11.896634">
        <ele>459.573301</ele>
        <time>2021-09-24T07:23:11.169Z</time>
      </trkpt>
      <trkpt lat="49.743479" lon="11.896777">
        <ele>459.585571</ele>
        <time>2021-09-24T07:23:18.177Z</time>
      </trkpt>
      <trkpt lat="49.743500" lon="11.896927">
        <ele>459.598414</ele>
        <time>2021-09-24T07:23:25.181Z</time>
      </trkpt>
      <trkpt lat="49.743526" lon="11.897079">
        <ele>459.611570</ele>
        <time>2021-09-24T07:23:32.173Z</time>
      </trkpt>
      <trkpt lat="49.743538" lon="11.897234">
        <ele>459.624633</ele>
        <time>2021-09-24T07:23:39.167Z</time>
      </trkpt>
      <trkpt lat="49.743557" lon="11.897385">
        <ele>459.637505</ele>
        <time>2021-09-24T07:23:46.165Z</time>
      </trkpt>
      <trkpt lat="49.743561" lon="11.897533">
        <ele>459.649900</ele>
        <time>2021-09-24T07:23:52.172Z</time>
      </trkpt>
      <trkpt lat="49.743555" lon="11.897673">
        <ele>459.661640</ele>
        <time>2021-09-24T07:23:58.177Z</time>
      </trkpt>
      <trkpt lat="49.743519" lon="11.897807">
        <ele>459.673783</ele>
        <time>2021-09-24T07:24:05.172Z</time>
      </trkpt>
      <trkpt lat="49.743473" lon="11.897943">
        <ele>459.686627</ele>
        <time>2021-09-24T07:24:12.170Z</time>
      </trkpt>
      <trkpt lat="49.743452" lon="11.898079">
        <ele>459.698327</ele>
        <time>2021-09-24T07:24:18.174Z</time>
      </trkpt>
      <trkpt lat="49.743469" lon="11.898223">
        <ele>459.710576</ele>
        <time>2021-09-24T07:24:24.169Z</time>
      </trkpt>
      <trkpt lat="49.743488" lon="11.898377">
        <ele>459.723695</ele>
        <time>2021-09-24T07:24:31.156Z</time>
      </trkpt>
      <trkpt lat="49.743518" lon="11.898521">
        <ele>459.736355</ele>
        <time>2021-09-24T07:24:38.188Z</time>
      </trkpt>
      <trkpt lat="49.743542" lon="11.898662">
        <ele>459.748555</ele>
        <time>2021-09-24T07:24:44.170Z</time>
      </trkpt>
      <trkpt lat="49.743553" lon="11.898810">
        <ele>459.761021</ele>
        <time>2021-09-24T07:24:50.163Z</time>
      </trkpt>
      <trkpt lat="49.743564" lon="11.898967">
        <ele>459.878041</ele>
        <time>2021-09-24T07:24:57.172Z</time>
      </trkpt>
      <trkpt lat="49.743564" lon="11.899124">
        <ele>460.138313</ele>
        <time>2021-09-24T07:25:04.172Z</time>
      </trkpt>
      <trkpt lat="49.743587" lon="11.899261">
        <ele>460.372968</ele>
        <time>2021-09-24T07:25:11.174Z</time>
      </trkpt>
      <trkpt lat="49.743599" lon="11.899400">
        <ele>460.605447</ele>
        <time>2021-09-24T07:25:17.144Z</time>
      </trkpt>
      <trkpt lat="49.743581" lon="11.899536">
        <ele>460.835585</ele>
        <time>2021-09-24T07:25:22.170Z</time>
      </trkpt>
      <trkpt lat="49.743545" lon="11.899676">
        <ele>461.085374</ele>
        <time>2021-09-24T07:25:30.175Z</time>
      </trkpt>
      <trkpt lat="49.743469" lon="11.899765">
        <ele>461.329878</ele>
        <time>2021-09-24T07:25:36.170Z</time>
      </trkpt>
      <trkpt lat="49.743396" lon="11.899846">
        <ele>461.560318</ele>
        <time>2021-09-24T07:25:41.174Z</time>
      </trkpt>
      <trkpt lat="49.743320" lon="11.899949">
        <ele>461.819489</ele>
        <time>2021-09-24T07:25:48.162Z</time>
      </trkpt>
      <trkpt lat="49.743234" lon="11.900011">
        <ele>462.062880</ele>
        <time>2021-09-24T07:25:56.176Z</time>
      </trkpt>
      <trkpt lat="49.743147" lon="11.900069">
        <ele>462.305899</ele>
        <time>2021-09-24T07:26:02.171Z</time>
      </trkpt>
      <trkpt lat="49.743059" lon="11.900117">
        <ele>462.545267</ele>
        <time>2021-09-24T07:26:08.175Z</time>
      </trkpt>
      <trkpt lat="49.742970" lon="11.900202">
        <ele>462.813570</ele>
        <time>2021-09-24T07:26:15.168Z</time>
      </trkpt>
      <trkpt lat="49.742894" lon="11.900296">
        <ele>463.063164</ele>
        <time>2021-09-24T07:26:22.173Z</time>
      </trkpt>
      <trkpt lat="49.742824" lon="11.900400">
        <ele>463.312110</ele>
        <time>2021-09-24T07:26:28.179Z</time>
      </trkpt>
      <trkpt lat="49.742749" lon="11.900500">
        <ele>463.566083</ele>
        <time>2021-09-24T07:26:35.162Z</time>
      </trkpt>
      <trkpt lat="49.742672" lon="11.900586">
        <ele>463.809695</ele>
        <time>2021-09-24T07:26:42.174Z</time>
      </trkpt>
      <trkpt lat="49.742587" lon="11.900647">
        <ele>464.050062</ele>
        <time>2021-09-24T07:26:48.170Z</time>
      </trkpt>
      <trkpt lat="49.742499" lon="11.900722">
        <ele>464.307791</ele>
        <time>2021-09-24T07:26:54.170Z</time>
      </trkpt>
      <trkpt lat="49.742414" lon="11.900789">
        <ele>464.328546</ele>
        <time>2021-09-24T07:27:02.158Z</time>
      </trkpt>
      <trkpt lat="49.742328" lon="11.900840">
        <ele>464.252759</ele>
        <time>2021-09-24T07:27:09.175Z</time>
      </trkpt>
      <trkpt lat="49.742233" lon="11.900931">
        <ele>464.160818</ele>
        <time>2021-09-24T07:27:15.186Z</time>
      </trkpt>
      <trkpt lat="49.742154" lon="11.901013">
        <ele>464.082539</ele>
        <time>2021-09-24T07:27:20.173Z</time>
      </trkpt>
      <trkpt lat="49.742073" lon="11.901086">
        <ele>464.005404</ele>
        <time>2021-09-24T07:27:26.165Z</time>
      </trkpt>
      <trkpt lat="49.741983" lon="11.901144">
        <ele>463.925177</ele>
        <time>2021-09-24T07:27:34.177Z</time>
      </trkpt>
      <trkpt lat="49.741897" lon="11.901213">
        <ele>463.845461</ele>
        <time>2021-09-24T07:27:42.172Z</time>
      </trkpt>
      <trkpt lat="49.741811" lon="11.901276">
        <ele>463.767163</ele>
        <time>2021-09-24T07:27:48.174Z</time>
      </trkpt>
      <trkpt lat="49.741725" lon="11.901338">
        <ele>463.689090</ele>
        <time>2021-09-24T07:27:54.175Z</time>
      </trkpt>
      <trkpt lat="49.741639" lon="11.901395">
        <ele>463.612103</ele>
        <time>2021-09-24T07:28:01.183Z</time>
      </trkpt>
      <trkpt lat="49.741553" lon="11.901461">
        <ele>463.533109</ele>
        <time>2021-09-24T07:28:10.174Z</time>
      </trkpt>
      <trkpt lat="49.741460" lon="11.901526">
        <ele>463.449135</ele>
        <time>2021-09-24T07:28:16.170Z</time>
      </trkpt>
      <trkpt lat="49.741010" lon="11.901632">
        <ele>463.074566</ele>
        <time>2021-09-24T07:28:46.479Z</time>
      </trkpt>
      <trkpt lat="49.741411" lon="11.901500">
        <ele>462.849999</ele>
        <time>2021-09-24T07:28:47.487Z</time>
      </trkpt>
      <trkpt lat="49.741321" lon="11.901470">
        <ele>462.825830</ele>
        <time>2021-09-24T07:28:48.496Z</time>
      </trkpt>
      <trkpt lat="49.741450" lon="11.901606">
        <ele>462.784852</ele>
        <time>2021-09-24T07:28:51.157Z</time>
      </trkpt>
      <trkpt lat="49.741342" lon="11.901612">
        <ele>462.756481</ele>
        <time>2021-09-24T07:29:06.144Z</time>
      </trkpt>
      <trkpt lat="49.741241" lon="11.901574">
        <ele>462.729193</ele>
        <time>2021-09-24T07:29:12.149Z</time>
      </trkpt>
      <trkpt lat="49.741148" lon="11.901529">
        <ele>462.703613</ele>
        <time>2021-09-24T07:29:19.150Z</time>
      </trkpt>
      <trkpt lat="49.741056" lon="11.901480">
        <ele>462.678070</ele>
        <time>2021-09-24T07:29:26.161Z</time>
      </trkpt>
      <trkpt lat="49.740967" lon="11.901443">
        <ele>462.653877</ele>
        <time>2021-09-24T07:29:32.150Z</time>
      </trkpt>
      <trkpt lat="49.740874" lon="11.901396">
        <ele>462.628193</ele>
        <time>2021-09-24T07:29:38.153Z</time>
      </trkpt>
      <trkpt lat="49.740761" lon="11.901360">
        <ele>462.597906</ele>
        <time>2021-09-24T07:29:47.172Z</time>
      </trkpt>
      <trkpt lat="49.740662" lon="11.901411">
        <ele>462.570513</ele>
        <time>2021-09-24T07:29:52.149Z</time>
      </trkpt>
      <trkpt lat="49.740611" lon="11.901539">
        <ele>462.545002</ele>
        <time>2021-09-24T07:29:59.141Z</time>
      </trkpt>
      <trkpt lat="49.740566" lon="11.901674">
        <ele>462.519231</ele>
        <time>2021-09-24T07:30:06.146Z</time>
      </trkpt>
      <trkpt lat="49.740517" lon="11.901793">
        <ele>462.495292</ele>
        <time>2021-09-24T07:30:12.152Z</time>
      </trkpt>
      <trkpt lat="49.740460" lon="11.901915">
        <ele>462.469752</ele>
        <time>2021-09-24T07:30:19.167Z</time>
      </trkpt>
      <trkpt lat="49.740410" lon="11.902044">
        <ele>462.444231</ele>
        <time>2021-09-24T07:30:26.154Z</time>
      </trkpt>
      <trkpt lat="49.740357" lon="11.902177">
        <ele>462.389799</ele>
        <time>2021-09-24T07:30:32.162Z</time>
      </trkpt>
      <trkpt lat="49.740292" lon="11.902294">
        <ele>462.307110</ele>
        <time>2021-09-24T07:30:38.147Z</time>
      </trkpt>
      <trkpt lat="49.740212" lon="11.902365">
        <ele>462.230630</ele>
        <time>2021-09-24T07:30:44.175Z</time>
      </trkpt>
      <trkpt lat="49.740123" lon="11.902341">
        <ele>462.155711</ele>
        <time>2021-09-24T07:30:50.150Z</time>
      </trkpt>
      <trkpt lat="49.740032" lon="11.902300">
        <ele>462.077112</ele>
        <time>2021-09-24T07:30:56.148Z</time>
      </trkpt>
      <trkpt lat="49.739936" lon="11.902266">
        <ele>461.995442</ele>
        <time>2021-09-24T07:31:02.157Z</time>
      </trkpt>
      <trkpt lat="49.739845" lon="11.902239">
        <ele>461.918602</ele>
        <time>2021-09-24T07:31:08.166Z</time>
      </trkpt>
      <trkpt lat="49.739753" lon="11.902232">
        <ele>461.842216</ele>
        <time>2021-09-24T07:31:14.153Z</time>
      </trkpt>
      <trkpt lat="49.739660" lon="11.902235">
        <ele>461.765076</ele>
        <time>2021-09-24T07:31:21.156Z</time>
      </trkpt>
      <trkpt lat="49.739629" lon="11.902370">
        <ele>461.688293</ele>
        <time>2021-09-24T07:31:30.159Z</time>
      </trkpt>
      <trkpt lat="49.739631" lon="11.902524">
        <ele>461.605742</ele>
        <time>2021-09-24T07:31:37.163Z</time>
      </trkpt>
      <trkpt lat="49.739610" lon="11.902667">
        <ele>461.527149</ele>
        <time>2021-09-24T07:31:43.158Z</time>
      </trkpt>
      <trkpt lat="49.739560" lon="11.902822">
        <ele>461.434306</ele>
        <time>2021-09-24T07:31:49.158Z</time>
      </trkpt>
      <trkpt lat="49.739514" lon="11.902945">
        <ele>461.358143</ele>
        <time>2021-09-24T07:31:54.175Z</time>
      </trkpt>
      <trkpt lat="49.739442" lon="11.903030">
        <ele>461.283041</ele>
        <time>2021-09-24T07:32:00.156Z</time>
      </trkpt>
      <trkpt lat="49.739348" lon="11.903229">
        <ele>461.150938</ele>
        <time>2021-09-24T07:32:31.157Z</time>
      </trkpt>
      <trkpt lat="49.739268" lon="11.903310">
        <ele>461.071654</ele>
        <time>2021-09-24T07:32:37.174Z</time>
      </trkpt>
      <trkpt lat="49.739180" lon="11.903381">
        <ele>460.989353</ele>
        <time>2021-09-24T07:32:43.155Z</time>
      </trkpt>
      <trkpt lat="49.739092" lon="11.903467">
        <ele>461.037292</ele>
        <time>2021-09-24T07:32:51.162Z</time>
      </trkpt>
      <trkpt lat="49.739023" lon="11.903584">
        <ele>461.268727</ele>
        <time>2021-09-24T07:32:59.175Z</time>
      </trkpt>
      <trkpt lat="49.738940" lon="11.903667">
        <ele>461.492159</ele>
        <time>2021-09-24T07:33:05.152Z</time>
      </trkpt>
      <trkpt lat="49.738864" lon="11.903762">
        <ele>461.713051</ele>
        <time>2021-09-24T07:33:12.149Z</time>
      </trkpt>
      <trkpt lat="49.738785" lon="11.903831">
        <ele>461.918152</ele>
        <time>2021-09-24T07:33:18.165Z</time>
      </trkpt>
      <trkpt lat="49.738700" lon="11.903909">
        <ele>462.141582</ele>
        <time>2021-09-24T07:33:25.156Z</time>
      </trkpt>
      <trkpt lat="49.738614" lon="11.904004">
        <ele>462.380484</ele>
        <time>2021-09-24T07:33:32.176Z</time>
      </trkpt>
      <trkpt lat="49.738528" lon="11.904097">
        <ele>462.617700</ele>
        <time>2021-09-24T07:33:39.167Z</time>
      </trkpt>
      <trkpt lat="49.738449" lon="11.904191">
        <ele>462.843015</ele>
        <time>2021-09-24T07:33:46.161Z</time>
      </trkpt>
      <trkpt lat="49.738357" lon="11.904267">
        <ele>463.078805</ele>
        <time>2021-09-24T07:33:54.159Z</time>
      </trkpt>
      <trkpt lat="49.738272" lon="11.904343">
        <ele>463.300759</ele>
        <time>2021-09-24T07:34:01.173Z</time>
      </trkpt>
      <trkpt lat="49.738192" lon="11.904441">
        <ele>463.531453</ele>
        <time>2021-09-24T07:34:08.168Z</time>
      </trkpt>
      <trkpt lat="49.738117" lon="11.904525">
        <ele>463.740780</ele>
        <time>2021-09-24T07:34:14.158Z</time>
      </trkpt>
      <trkpt lat="49.738053" lon="11.904625">
        <ele>463.946420</ele>
        <time>2021-09-24T07:34:20.154Z</time>
      </trkpt>
      <trkpt lat="49.737997" lon="11.904745">
        <ele>464.162695</ele>
        <time>2021-09-24T07:34:25.167Z</time>
      </trkpt>
      <trkpt lat="49.737962" lon="11.904873">
        <ele>464.365777</ele>
        <time>2021-09-24T07:34:31.160Z</time>
      </trkpt>
      <trkpt lat="49.737942" lon="11.905009">
        <ele>464.569578</ele>
        <time>2021-09-24T07:34:37.157Z</time>
      </trkpt>
      <trkpt lat="49.737904" lon="11.905155">
        <ele>464.799561</ele>
        <time>2021-09-24T07:34:43.175Z</time>
      </trkpt>
      <trkpt lat="49.737864" lon="11.905281">
        <ele>465.004682</ele>
        <time>2021-09-24T07:34:49.156Z</time>
      </trkpt>
      <trkpt lat="49.737840" lon="11.905425">
        <ele>465.090498</ele>
        <time>2021-09-24T07:34:55.145Z</time>
      </trkpt>
      <trkpt lat="49.737788" lon="11.905541">
        <ele>465.171426</ele>
        <time>2021-09-24T07:35:00.140Z</time>
      </trkpt>
      <trkpt lat="49.737741" lon="11.905662">
        <ele>465.252353</ele>
        <time>2021-09-24T07:35:06.171Z</time>
      </trkpt>
      <trkpt lat="49.737679" lon="11.905778">
        <ele>465.338645</ele>
        <time>2021-09-24T07:35:14.148Z</time>
      </trkpt>
      <trkpt lat="49.737600" lon="11.905858">
        <ele>465.422390</ele>
        <time>2021-09-24T07:35:20.160Z</time>
      </trkpt>
      <trkpt lat="49.737535" lon="11.905981">
        <ele>465.513472</ele>
        <time>2021-09-24T07:35:28.152Z</time>
      </trkpt>
      <trkpt lat="49.737472" lon="11.906088">
        <ele>465.596448</ele>
        <time>2021-09-24T07:35:36.156Z</time>
      </trkpt>
      <trkpt lat="49.737407" lon="11.906214">
        <ele>465.688867</ele>
        <time>2021-09-24T07:35:43.157Z</time>
      </trkpt>
      <trkpt lat="49.737352" lon="11.906334">
        <ele>465.773200</ele>
        <time>2021-09-24T07:35:49.173Z</time>
      </trkpt>
      <trkpt lat="49.737293" lon="11.906460">
        <ele>465.862396</ele>
        <time>2021-09-24T07:35:56.152Z</time>
      </trkpt>
      <trkpt lat="49.737236" lon="11.906566">
        <ele>465.941445</ele>
        <time>2021-09-24T07:36:01.161Z</time>
      </trkpt>
      <trkpt lat="49.737175" lon="11.906676">
        <ele>466.024534</ele>
        <time>2021-09-24T07:36:07.181Z</time>
      </trkpt>
      <trkpt lat="49.737098" lon="11.906775">
        <ele>466.113335</ele>
        <time>2021-09-24T07:36:15.167Z</time>
      </trkpt>
      <trkpt lat="49.737024" lon="11.906873">
        <ele>466.199732</ele>
        <time>2021-09-24T07:36:22.168Z</time>
      </trkpt>
      <trkpt lat="49.736944" lon="11.906940">
        <ele>466.280419</ele>
        <time>2021-09-24T07:36:28.147Z</time>
      </trkpt>
      <trkpt lat="49.736856" lon="11.907010">
        <ele>466.368186</ele>
        <time>2021-09-24T07:36:34.167Z</time>
      </trkpt>
      <trkpt lat="49.736772" lon="11.907081">
        <ele>466.453086</ele>
        <time>2021-09-24T07:36:40.150Z</time>
      </trkpt>
      <trkpt lat="49.736683" lon="11.907108">
        <ele>466.533531</ele>
        <time>2021-09-24T07:36:47.175Z</time>
      </trkpt>
      <trkpt lat="49.736589" lon="11.907157">
        <ele>466.541101</ele>
        <time>2021-09-24T07:36:54.159Z</time>
      </trkpt>
      <trkpt lat="49.736499" lon="11.907205">
        <ele>466.294515</ele>
        <time>2021-09-24T07:36:59.158Z</time>
      </trkpt>
      <trkpt lat="49.736404" lon="11.907258">
        <ele>466.032931</ele>
        <time>2021-09-24T07:37:05.165Z</time>
      </trkpt>
      <trkpt lat="49.736315" lon="11.907317">
        <ele>465.782127</ele>
        <time>2021-09-24T07:37:11.172Z</time>
      </trkpt>
      <trkpt lat="49.736218" lon="11.907361">
        <ele>465.520295</ele>
        <time>2021-09-24T07:37:19.156Z</time>
      </trkpt>
      <trkpt lat="49.736129" lon="11.907411">
        <ele>465.275034</ele>
        <time>2021-09-24T07:37:25.158Z</time>
      </trkpt>
      <trkpt lat="49.736038" lon="11.907463">
        <ele>465.023757</ele>
        <time>2021-09-24T07:37:32.171Z</time>
      </trkpt>
      <trkpt lat="49.735941" lon="11.907510">
        <ele>464.760468</ele>
        <time>2021-09-24T07:37:38.173Z</time>
      </trkpt>
      <trkpt lat="49.735844" lon="11.907569">
        <ele>464.490493</ele>
        <time>2021-09-24T07:37:45.169Z</time>
      </trkpt>
      <trkpt lat="49.735758" lon="11.907632">
        <ele>464.244023</ele>
        <time>2021-09-24T07:37:51.159Z</time>
      </trkpt>
      <trkpt lat="49.735652" lon="11.907644">
        <ele>463.968719</ele>
        <time>2021-09-24T07:37:58.163Z</time>
      </trkpt>
      <trkpt lat="49.735559" lon="11.907662">
        <ele>463.725946</ele>
        <time>2021-09-24T07:38:05.169Z</time>
      </trkpt>
      <trkpt lat="49.735461" lon="11.907670">
        <ele>463.471745</ele>
        <time>2021-09-24T07:38:11.173Z</time>
      </trkpt>
      <trkpt lat="49.735358" lon="11.907652">
        <ele>463.203250</ele>
        <time>2021-09-24T07:38:17.166Z</time>
      </trkpt>
      <trkpt lat="49.735267" lon="11.907640">
        <ele>462.966680</ele>
        <time>2021-09-24T07:38:23.145Z</time>
      </trkpt>
      <trkpt lat="49.735175" lon="11.907651">
        <ele>462.727664</ele>
        <time>2021-09-24T07:38:31.157Z</time>
      </trkpt>
      <trkpt lat="49.735085" lon="11.907615">
        <ele>462.486875</ele>
        <time>2021-09-24T07:38:37.163Z</time>
      </trkpt>
      <trkpt lat="49.734987" lon="11.907572">
        <ele>462.223017</ele>
        <time>2021-09-24T07:38:43.168Z</time>
      </trkpt>
      <trkpt lat="49.734893" lon="11.907527">
        <ele>461.968142</ele>
        <time>2021-09-24T07:38:49.171Z</time>
      </trkpt>
      <trkpt lat="49.734794" lon="11.907461">
        <ele>461.882594</ele>
        <time>2021-09-24T07:38:55.159Z</time>
      </trkpt>
      <trkpt lat="49.734693" lon="11.907424">
        <ele>461.819476</ele>
        <time>2021-09-24T07:39:02.161Z</time>
      </trkpt>
      <trkpt lat="49.734602" lon="11.907416">
        <ele>461.764049</ele>
        <time>2021-09-24T07:39:08.176Z</time>
      </trkpt>
      <trkpt lat="49.734512" lon="11.907397">
        <ele>461.708811</ele>
        <time>2021-09-24T07:39:14.181Z</time>
      </trkpt>
      <trkpt lat="49.734421" lon="11.907431">
        <ele>461.651882</ele>
        <time>2021-09-24T07:39:20.172Z</time>
      </trkpt>
      <trkpt lat="49.734331" lon="11.907454">
        <ele>461.596410</ele>
        <time>2021-09-24T07:39:27.165Z</time>
      </trkpt>
      <trkpt lat="49.734232" lon="11.907438">
        <ele>461.535879</ele>
        <time>2021-09-24T07:39:33.156Z</time>
      </trkpt>
      <trkpt lat="49.734145" lon="11.907396">
        <ele>461.480457</ele>
        <time>2021-09-24T07:39:41.171Z</time>
      </trkpt>
      <trkpt lat="49.734063" lon="11.907338">
        <ele>461.425628</ele>
        <time>2021-09-24T07:39:48.168Z</time>
      </trkpt>
      <trkpt lat="49.733988" lon="11.907239">
        <ele>461.365676</ele>
        <time>2021-09-24T07:39:54.157Z</time>
      </trkpt>
      <trkpt lat="49.733900" lon="11.907151">
        <ele>461.301957</ele>
        <time>2021-09-24T07:39:59.156Z</time>
      </trkpt>
      <trkpt lat="49.733822" lon="11.907058">
        <ele>461.242073</ele>
        <time>2021-09-24T07:40:06.147Z</time>
      </trkpt>
      <trkpt lat="49.733732" lon="11.907009">
        <ele>461.184053</ele>
        <time>2021-09-24T07:40:13.161Z</time>
      </trkpt>
      <trkpt lat="49.733644" lon="11.906934">
        <ele>461.122957</ele>
        <time>2021-09-24T07:40:21.172Z</time>
      </trkpt>
      <trkpt lat="49.733570" lon="11.906850">
        <ele>461.067143</ele>
        <time>2021-09-24T07:40:27.194Z</time>
      </trkpt>
      <trkpt lat="49.733497" lon="11.906758">
        <ele>461.009887</ele>
        <time>2021-09-24T07:40:34.164Z</time>
      </trkpt>
      <trkpt lat="49.733408" lon="11.906681">
        <ele>460.947878</ele>
        <time>2021-09-24T07:40:41.160Z</time>
      </trkpt>
      <trkpt lat="49.733318" lon="11.906609">
        <ele>460.886264</ele>
        <time>2021-09-24T07:40:48.170Z</time>
      </trkpt>
      <trkpt lat="49.733249" lon="11.906521">
        <ele>460.914365</ele>
        <time>2021-09-24T07:40:54.153Z</time>
      </trkpt>
      <trkpt lat="49.733176" lon="11.906420">
        <ele>461.155290</ele>
        <time>2021-09-24T07:41:00.152Z</time>
      </trkpt>
      <trkpt lat="49.733114" lon="11.906316">
        <ele>461.380262</ele>
        <time>2021-09-24T07:41:08.175Z</time>
      </trkpt>
      <trkpt lat="49.733034" lon="11.906223">
        <ele>461.626439</ele>
        <time>2021-09-24T07:41:14.179Z</time>
      </trkpt>
      <trkpt lat="49.732952" lon="11.906140">
        <ele>461.867508</ele>
        <time>2021-09-24T07:41:20.175Z</time>
      </trkpt>
      <trkpt lat="49.732891" lon="11.906033">
        <ele>462.094376</ele>
        <time>2021-09-24T07:41:27.180Z</time>
      </trkpt>
      <trkpt lat="49.732808" lon="11.905950">
        <ele>462.337507</ele>
        <time>2021-09-24T07:41:34.161Z</time>
      </trkpt>
      <trkpt lat="49.732738" lon="11.905844">
        <ele>462.578476</ele>
        <time>2021-09-24T07:41:40.160Z</time>
      </trkpt>
      <trkpt lat="49.732667" lon="11.905752">
        <ele>462.806315</ele>
        <time>2021-09-24T07:41:46.162Z</time>
      </trkpt>
      <trkpt lat="49.732614" lon="11.905640">
        <ele>463.027037</ele>
        <time>2021-09-24T07:41:54.170Z</time>
      </trkpt>
      <trkpt lat="49.732542" lon="11.905546">
        <ele>463.258806</ele>
        <time>2021-09-24T07:42:01.175Z</time>
      </trkpt>
      <trkpt lat="49.732483" lon="11.905440">
        <ele>463.481243</ele>
        <time>2021-09-24T07:42:06.161Z</time>
      </trkpt>
      <trkpt lat="49.732419" lon="11.905335">
        <ele>463.710736</ele>
        <time>2021-09-24T07:42:12.155Z</time>
      </trkpt>
      <trkpt lat="49.732394" lon="11.905200">
        <ele>463.934040</ele>
        <time>2021-09-24T07:42:19.159Z</time>
      </trkpt>
      <trkpt lat="49.732336" lon="11.905070">
        <ele>464.185221</ele>
        <time>2021-09-24T07:42:26.170Z</time>
      </trkpt>
      <trkpt lat="49.732288" lon="11.904941">
        <ele>464.421910</ele>
        <time>2021-09-24T07:42:31.163Z</time>
      </trkpt>
      <trkpt lat="49.732237" lon="11.904814">
        <ele>464.659659</ele>
        <time>2021-09-24T07:42:39.165Z</time>
      </trkpt>
      <trkpt lat="49.732182" lon="11.904672">
        <ele>464.922896</ele>
        <time>2021-09-24T07:42:45.139Z</time>
      </trkpt>
      <trkpt lat="49.732120" lon="11.904563">
        <ele>465.153778</ele>
        <time>2021-09-24T07:42:52.172Z</time>
      </trkpt>
      <trkpt lat="49.732072" lon="11.904442">
        <ele>465.245628</ele>
        <time>2021-09-24T07:42:59.166Z</time>
      </trkpt>
      <trkpt lat="49.732000" lon="11.904347">
        <ele>465.185422</ele>
        <time>2021-09-24T07:43:05.139Z</time>
      </trkpt>
      <trkpt lat="49.731936" lon="11.904243">
        <ele>465.126368</ele>
        <time>2021-09-24T07:43:13.153Z</time>
      </trkpt>
      <trkpt lat="49.731872" lon="11.904135">
        <ele>465.066112</ele>
        <time>2021-09-24T07:43:18.177Z</time>
      </trkpt>
      <trkpt lat="49.731793" lon="11.904048">
        <ele>465.004415</ele>
        <time>2021-09-24T07:43:25.168Z</time>
      </trkpt>
      <trkpt lat="49.731707" lon="11.904004">
        <ele>464.946784</ele>
        <time>2021-09-24T07:43:31.175Z</time>
      </trkpt>
      <trkpt lat="49.731612" lon="11.903974">
        <ele>464.885094</ele>
        <time>2021-09-24T07:43:36.182Z</time>
      </trkpt>
      <trkpt lat="49.731518" lon="11.904001">
        <ele>464.824265</ele>
        <time>2021-09-24T07:43:43.163Z</time>
      </trkpt>
      <trkpt lat="49.731418" lon="11.904012">
        <ele>464.760480</ele>
        <time>2021-09-24T07:43:51.174Z</time>
      </trkpt>
      <trkpt lat="49.731326" lon="11.904007">
        <ele>464.701909</ele>
        <time>2021-09-24T07:43:57.169Z</time>
      </trkpt>
      <trkpt lat="49.731228" lon="11.903994">
        <ele>464.639329</ele>
        <time>2021-09-24T07:44:04.176Z</time>
      </trkpt>
      <trkpt lat="49.731130" lon="11.903995">
        <ele>464.576975</ele>
        <time>2021-09-24T07:44:10.170Z</time>
      </trkpt>
      <trkpt lat="49.731034" lon="11.904014">
        <ele>464.515398</ele>
        <time>2021-09-24T07:44:17.176Z</time>
      </trkpt>
      <trkpt lat="49.730936" lon="11.904044">
        <ele>464.451837</ele>
        <time>2021-09-24T07:44:23.163Z</time>
      </trkpt>
      <trkpt lat="49.730833" lon="11.904034">
        <ele>464.386175</ele>
        <time>2021-09-24T07:44:29.172Z</time>
      </trkpt>
      <trkpt lat="49.730736" lon="11.904034">
        <ele>464.324459</ele>
        <time>2021-09-24T07:44:35.172Z</time>
      </trkpt>
      <trkpt lat="49.730639" lon="11.904049">
        <ele>464.262436</ele>
        <time>2021-09-24T07:44:42.168Z</time>
      </trkpt>
      <trkpt lat="49.730539" lon="11.904064">
        <ele>464.198513</ele>
        <time>2021-09-24T07:44:49.185Z</time>
      </trkpt>
      <trkpt lat="49.730446" lon="11.904083">
        <ele>464.138828</ele>
        <time>2021-09-24T07:44:55.185Z</time>
      </trkpt>
      <trkpt lat="49.730345" lon="11.904065">
        <ele>464.128765</ele>
        <time>2021-09-24T07:45:02.180Z</time>
      </trkpt>
      <trkpt lat="49.730249" lon="11.904064">
        <ele>464.128765</ele>
        <time>2021-09-24T07:45:08.180Z</time>
      </trkpt>
      <trkpt lat="49.730149" lon="11.904088">
        <ele>464.128765</ele>
        <time>2021-09-24T07:45:15.166Z</time>
      </trkpt>
      <trkpt lat="49.730046" lon="11.904104">
        <ele>464.128765</ele>
        <time>2021-09-24T07:45:22.176Z</time>
      </trkpt>
      <trkpt lat="49.729953" lon="11.904104">
        <ele>464.128765</ele>
        <time>2021-09-24T07:45:28.162Z</time>
      </trkpt>
      <trkpt lat="49.729886" lon="11.904211">
        <ele>464.128765</ele>
        <time>2021-09-24T07:45:38.172Z</time>
      </trkpt>
      <trkpt lat="49.729907" lon="11.904349">
        <ele>464.128765</ele>
        <time>2021-09-24T07:45:43.179Z</time>
      </trkpt>
      <trkpt lat="49.729916" lon="11.904513">
        <ele>464.128765</ele>
        <time>2021-09-24T07:45:50.167Z</time>
      </trkpt>
      <trkpt lat="49.729867" lon="11.904653">
        <ele>464.128765</ele>
        <time>2021-09-24T07:45:59.176Z</time>
      </trkpt>
      <trkpt lat="49.729843" lon="11.904807">
        <ele>464.128765</ele>
        <time>2021-09-24T07:46:06.135Z</time>
      </trkpt>
      <trkpt lat="49.729891" lon="11.904947">
        <ele>464.128765</ele>
        <time>2021-09-24T07:46:12.168Z</time>
      </trkpt>
      <trkpt lat="49.729892" lon="11.905037">
        <ele>464.128765</ele>
        <time>2021-09-24T07:46:27.321Z</time>
      </trkpt>
    </trkseg>
  </trk>
</gpx>